PWSweather.com
Personal Weather Stations
Station Observations
DL5ARK
SonnebergDE

SonnebergDE

Lat: 50.34904861, Lon: 11.18112087

Elevation: 1214

Station Type: Selfmade

http://www.sumbarg.de

High Low Average
Temperature 37.7°F3.2°C 29.6°F-1.3°C 34.1°F1.2°C
Dew Point 41.8°F5.4°C 34.8°F1.6°C 38.5°F3.6°C
Winds 8.9 mph 14.3 kmh Calm Calm 1.0 mph S1.6 kmh S
Wind Gusts 8.9 mph14.3 kmh -- 1.0 mph1.6 kmh
Humidity 94% 86% 90%
Pressure 29.67 in1004.7 mb 29.29 in991.9 mb -
Precipitation 0.22 in5.6 mm - -
Hour Temp Dew Point Humidity Winds Wind Gusts Pressure Precip Precip Rate Daily Precip Total
12:02 AM 34.1°F1.2°C 39.6°F4.2°C 86% Calm Calm -- 29.67 in1004.7 mb 0.00 in0.0 mm 0.00 in0.0 mm 0.00 in0.0 mm
12:05 AM 34.3°F1.3°C 40.1°F4.5°C 88% Calm Calm -- 29.67 in1004.7 mb 0.00 in0.0 mm 0.00 in0.0 mm 0.00 in0.0 mm
12:08 AM 34.5°F1.4°C 40.1°F4.5°C 88% Calm Calm -- 29.67 in1004.7 mb 0.00 in0.0 mm 0.00 in0.0 mm 0.00 in0.0 mm
12:11 AM 34.5°F1.4°C 40.0°F4.4°C 88% Calm Calm -- 29.67 in1004.7 mb 0.00 in0.0 mm 0.00 in0.0 mm 0.00 in0.0 mm
12:14 AM 34.4°F1.3°C 40.1°F4.5°C 88% Calm Calm -- 29.67 in1004.7 mb 0.00 in0.0 mm 0.00 in0.0 mm 0.00 in0.0 mm
12:17 AM 34.3°F1.3°C 40.2°F4.6°C 88% Calm Calm -- 29.67 in1004.7 mb 0.00 in0.0 mm 0.00 in0.0 mm 0.00 in0.0 mm
12:20 AM 33.0°F0.6°C 39.7°F4.3°C 88% Calm Calm -- 29.67 in1004.7 mb 0.00 in0.0 mm 0.00 in0.0 mm 0.00 in0.0 mm
12:23 AM 33.0°F0.6°C 39.5°F4.2°C 87% Calm Calm -- 29.67 in1004.7 mb 0.00 in0.0 mm 0.00 in0.0 mm 0.00 in0.0 mm
12:26 AM 33.0°F0.6°C 39.2°F4.0°C 87% Calm Calm -- 29.67 in1004.7 mb 0.00 in0.0 mm 0.00 in0.0 mm 0.00 in0.0 mm
12:29 AM 33.5°F0.8°C 39.2°F4.0°C 87% Calm Calm -- 29.67 in1004.7 mb 0.00 in0.0 mm 0.00 in0.0 mm 0.00 in0.0 mm
12:32 AM 33.6°F0.9°C 38.8°F3.8°C 87% Calm Calm -- 29.67 in1004.7 mb 0.00 in0.0 mm 0.00 in0.0 mm 0.00 in0.0 mm
12:35 AM 33.7°F0.9°C 39.0°F3.9°C 88% Calm Calm -- 29.67 in1004.7 mb 0.00 in0.0 mm 0.00 in0.0 mm 0.00 in0.0 mm
12:38 AM 33.9°F1.1°C 39.3°F4.1°C 88% Calm Calm -- 29.67 in1004.7 mb 0.00 in0.0 mm 0.00 in0.0 mm 0.00 in0.0 mm
12:41 AM 33.7°F0.9°C 39.0°F3.9°C 88% Calm Calm -- 29.67 in1004.7 mb 0.00 in0.0 mm 0.00 in0.0 mm 0.00 in0.0 mm
12:44 AM 34.4°F1.3°C 39.2°F4.0°C 88% Calm Calm -- 29.67 in1004.7 mb 0.00 in0.0 mm 0.00 in0.0 mm 0.00 in0.0 mm
12:47 AM 33.8°F1.0°C 39.1°F3.9°C 87% 1.2 mph NW1.9 kmh NW 1.2 mph1.9 kmh 29.67 in1004.7 mb 0.00 in0.0 mm 0.00 in0.0 mm 0.00 in0.0 mm
12:50 AM 33.9°F1.1°C 39.3°F4.1°C 88% 0.8 mph NW1.3 kmh NW 0.8 mph1.3 kmh 29.67 in1004.7 mb 0.00 in0.0 mm 0.00 in0.0 mm 0.00 in0.0 mm
12:53 AM 34.0°F1.1°C 39.4°F4.1°C 88% 0.8 mph 1.3 kmh 0.8 mph1.3 kmh 29.67 in1004.7 mb 0.00 in0.0 mm 0.00 in0.0 mm 0.00 in0.0 mm
12:59 AM 33.9°F1.1°C 39.4°F4.1°C 89% 1.2 mph 1.9 kmh 1.2 mph1.9 kmh 29.67 in1004.7 mb 0.00 in0.0 mm 0.00 in0.0 mm 0.00 in0.0 mm
01:02 AM 34.4°F1.3°C 39.1°F3.9°C 89% Calm Calm -- 29.67 in1004.7 mb 0.00 in0.0 mm 0.00 in0.0 mm 0.00 in0.0 mm
01:05 AM 33.8°F1.0°C 39.2°F4.0°C 89% Calm Calm -- 29.67 in1004.7 mb 0.00 in0.0 mm 0.00 in0.0 mm 0.00 in0.0 mm
01:08 AM 33.8°F1.0°C 39.4°F4.1°C 89% Calm Calm -- 29.67 in1004.7 mb 0.00 in0.0 mm 0.00 in0.0 mm 0.00 in0.0 mm
01:11 AM 33.9°F1.1°C 39.2°F4.0°C 89% Calm Calm -- 29.67 in1004.7 mb 0.00 in0.0 mm 0.00 in0.0 mm 0.00 in0.0 mm
01:14 AM 33.6°F0.9°C 39.1°F3.9°C 89% Calm Calm -- 29.67 in1004.7 mb 0.00 in0.0 mm 0.00 in0.0 mm 0.00 in0.0 mm
01:17 AM 33.4°F0.8°C 39.1°F3.9°C 88% Calm Calm -- 29.67 in1004.7 mb 0.00 in0.0 mm 0.00 in0.0 mm 0.00 in0.0 mm
01:20 AM 32.8°F0.4°C 39.2°F4.0°C 89% Calm Calm -- 29.67 in1004.7 mb 0.00 in0.0 mm 0.00 in0.0 mm 0.00 in0.0 mm
01:23 AM 32.5°F0.3°C 38.5°F3.6°C 87% Calm Calm -- 29.67 in1004.7 mb 0.00 in0.0 mm 0.00 in0.0 mm 0.00 in0.0 mm
01:26 AM 31.9°F-0.1°C 38.6°F3.7°C 88% Calm Calm -- 29.67 in1004.7 mb 0.00 in0.0 mm 0.00 in0.0 mm 0.00 in0.0 mm
01:29 AM 32.0°F0.0°C 37.9°F3.3°C 87% 0.4 mph 0.6 kmh 0.4 mph0.6 kmh 29.67 in1004.7 mb 0.00 in0.0 mm 0.00 in0.0 mm 0.00 in0.0 mm
01:32 AM 31.8°F-0.1°C 37.9°F3.3°C 87% Calm Calm -- 29.67 in1004.7 mb 0.00 in0.0 mm 0.00 in0.0 mm 0.00 in0.0 mm
01:35 AM 31.4°F-0.3°C 37.7°F3.2°C 87% Calm Calm -- 29.67 in1004.7 mb 0.00 in0.0 mm 0.00 in0.0 mm 0.00 in0.0 mm
01:38 AM 31.4°F-0.3°C 37.6°F3.1°C 87% Calm Calm -- 29.67 in1004.7 mb 0.00 in0.0 mm 0.00 in0.0 mm 0.00 in0.0 mm
01:41 AM 31.4°F-0.3°C 37.6°F3.1°C 87% Calm Calm -- 29.67 in1004.7 mb 0.00 in0.0 mm 0.00 in0.0 mm 0.00 in0.0 mm
01:44 AM 31.2°F-0.4°C 37.5°F3.1°C 87% Calm Calm -- 29.67 in1004.7 mb 0.00 in0.0 mm 0.00 in0.0 mm 0.00 in0.0 mm
01:47 AM 31.2°F-0.4°C 37.5°F3.1°C 87% Calm Calm -- 29.67 in1004.7 mb 0.00 in0.0 mm 0.00 in0.0 mm 0.00 in0.0 mm
01:50 AM 31.4°F-0.3°C 37.4°F3.0°C 87% Calm Calm -- 29.67 in1004.7 mb 0.00 in0.0 mm 0.00 in0.0 mm 0.00 in0.0 mm
01:53 AM 30.8°F-0.7°C 37.0°F2.8°C 86% Calm Calm -- 29.67 in1004.7 mb 0.00 in0.0 mm 0.00 in0.0 mm 0.00 in0.0 mm
01:56 AM 31.0°F-0.6°C 37.0°F2.8°C 86% Calm Calm -- 29.67 in1004.7 mb 0.00 in0.0 mm 0.00 in0.0 mm 0.00 in0.0 mm
01:59 AM 30.8°F-0.7°C 37.2°F2.9°C 87% Calm Calm -- 29.67 in1004.7 mb 0.00 in0.0 mm 0.00 in0.0 mm 0.00 in0.0 mm
02:02 AM 30.8°F-0.7°C 36.7°F2.6°C 87% Calm Calm -- 29.67 in1004.7 mb 0.00 in0.0 mm 0.00 in0.0 mm 0.00 in0.0 mm
02:08 AM 30.5°F-0.8°C 36.8°F2.7°C 87% Calm Calm -- 29.67 in1004.7 mb 0.00 in0.0 mm 0.00 in0.0 mm 0.00 in0.0 mm
02:11 AM 30.7°F-0.7°C 36.4°F2.4°C 87% Calm Calm -- 29.67 in1004.7 mb 0.00 in0.0 mm 0.00 in0.0 mm 0.00 in0.0 mm
02:14 AM 30.7°F-0.7°C 36.7°F2.6°C 87% Calm Calm -- 29.67 in1004.7 mb 0.00 in0.0 mm 0.00 in0.0 mm 0.00 in0.0 mm
02:17 AM 31.0°F-0.6°C 36.6°F2.6°C 87% Calm Calm -- 29.67 in1004.7 mb 0.00 in0.0 mm 0.00 in0.0 mm 0.00 in0.0 mm
02:20 AM 31.0°F-0.6°C 36.5°F2.5°C 87% Calm Calm -- 29.67 in1004.7 mb 0.00 in0.0 mm 0.00 in0.0 mm 0.00 in0.0 mm
02:23 AM 30.8°F-0.7°C 36.7°F2.6°C 88% Calm Calm -- 29.67 in1004.7 mb 0.00 in0.0 mm 0.00 in0.0 mm 0.00 in0.0 mm
02:26 AM 31.0°F-0.6°C 36.6°F2.6°C 87% Calm Calm -- 29.67 in1004.7 mb 0.00 in0.0 mm 0.00 in0.0 mm 0.00 in0.0 mm
02:29 AM 31.1°F-0.5°C 36.7°F2.6°C 87% Calm Calm -- 29.67 in1004.7 mb 0.00 in0.0 mm 0.00 in0.0 mm 0.00 in0.0 mm
02:32 AM 31.1°F-0.5°C 36.5°F2.5°C 88% Calm Calm -- 29.67 in1004.7 mb 0.00 in0.0 mm 0.00 in0.0 mm 0.00 in0.0 mm
02:35 AM 30.8°F-0.7°C 36.5°F2.5°C 88% Calm Calm -- 29.67 in1004.7 mb 0.00 in0.0 mm 0.00 in0.0 mm 0.00 in0.0 mm
02:38 AM 30.3°F-0.9°C 36.2°F2.3°C 87% Calm Calm -- 29.67 in1004.7 mb 0.00 in0.0 mm 0.00 in0.0 mm 0.00 in0.0 mm
02:41 AM 30.3°F-0.9°C 36.1°F2.3°C 87% Calm Calm -- 29.67 in1004.7 mb 0.00 in0.0 mm 0.00 in0.0 mm 0.00 in0.0 mm
02:44 AM 30.0°F-1.1°C 36.0°F2.2°C 87% Calm Calm -- 29.67 in1004.7 mb 0.00 in0.0 mm 0.00 in0.0 mm 0.00 in0.0 mm
02:47 AM 30.0°F-1.1°C 35.6°F2.0°C 87% Calm Calm -- 29.67 in1004.7 mb 0.00 in0.0 mm 0.00 in0.0 mm 0.00 in0.0 mm
02:50 AM 30.2°F-1.0°C 35.7°F2.1°C 87% Calm Calm -- 29.67 in1004.7 mb 0.00 in0.0 mm 0.00 in0.0 mm 0.00 in0.0 mm
02:53 AM 30.1°F-1.1°C 35.7°F2.1°C 87% Calm Calm -- 29.67 in1004.7 mb 0.00 in0.0 mm 0.00 in0.0 mm 0.00 in0.0 mm
02:56 AM 30.5°F-0.8°C 35.9°F2.2°C 88% Calm Calm -- 29.67 in1004.7 mb 0.00 in0.0 mm 0.00 in0.0 mm 0.00 in0.0 mm
02:59 AM 30.2°F-1.0°C 35.7°F2.1°C 88% Calm Calm -- 29.67 in1004.7 mb 0.00 in0.0 mm 0.00 in0.0 mm 0.00 in0.0 mm
03:02 AM 30.3°F-0.9°C 35.3°F1.8°C 87% Calm Calm -- 29.67 in1004.7 mb 0.00 in0.0 mm 0.00 in0.0 mm 0.00 in0.0 mm
03:05 AM 29.9°F-1.2°C 35.7°F2.1°C 87% Calm Calm -- 29.67 in1004.7 mb 0.00 in0.0 mm 0.00 in0.0 mm 0.00 in0.0 mm
03:08 AM 29.9°F-1.2°C 35.7°F2.1°C 88% Calm Calm -- 29.67 in1004.7 mb 0.00 in0.0 mm 0.00 in0.0 mm 0.00 in0.0 mm
03:11 AM 30.1°F-1.1°C 35.6°F2.0°C 88% Calm Calm -- 29.67 in1004.7 mb 0.00 in0.0 mm 0.00 in0.0 mm 0.00 in0.0 mm
03:14 AM 30.2°F-1.0°C 35.4°F1.9°C 87% Calm Calm -- 29.66 in1004.4 mb 0.00 in0.0 mm 0.00 in0.0 mm 0.00 in0.0 mm
03:17 AM 30.3°F-0.9°C 35.7°F2.1°C 88% Calm Calm -- 29.67 in1004.7 mb 0.00 in0.0 mm 0.00 in0.0 mm 0.00 in0.0 mm
03:20 AM 30.2°F-1.0°C 35.3°F1.8°C 87% Calm Calm -- 29.66 in1004.4 mb 0.00 in0.0 mm 0.00 in0.0 mm 0.00 in0.0 mm
03:23 AM 30.3°F-0.9°C 35.7°F2.1°C 88% Calm Calm -- 29.66 in1004.4 mb 0.00 in0.0 mm 0.00 in0.0 mm 0.00 in0.0 mm
03:26 AM 30.4°F-0.9°C 35.4°F1.9°C 88% Calm Calm -- 29.66 in1004.4 mb 0.00 in0.0 mm 0.00 in0.0 mm 0.00 in0.0 mm
03:29 AM 30.1°F-1.1°C 35.5°F1.9°C 88% Calm Calm -- 29.66 in1004.4 mb 0.00 in0.0 mm 0.00 in0.0 mm 0.00 in0.0 mm
03:32 AM 30.0°F-1.1°C 35.1°F1.7°C 87% Calm Calm -- 29.66 in1004.4 mb 0.00 in0.0 mm 0.00 in0.0 mm 0.00 in0.0 mm
03:35 AM 30.4°F-0.9°C 35.3°F1.8°C 88% Calm Calm -- 29.66 in1004.4 mb 0.00 in0.0 mm 0.00 in0.0 mm 0.00 in0.0 mm
03:38 AM 30.7°F-0.7°C 35.4°F1.9°C 89% Calm Calm -- 29.66 in1004.4 mb 0.00 in0.0 mm 0.00 in0.0 mm 0.00 in0.0 mm
03:41 AM 30.4°F-0.9°C 35.6°F2.0°C 89% Calm Calm -- 29.66 in1004.4 mb 0.00 in0.0 mm 0.00 in0.0 mm 0.00 in0.0 mm
03:44 AM 30.1°F-1.1°C 35.6°F2.0°C 89% Calm Calm -- 29.66 in1004.4 mb 0.00 in0.0 mm 0.00 in0.0 mm 0.00 in0.0 mm
03:47 AM 30.0°F-1.1°C 35.4°F1.9°C 89% Calm Calm -- 29.66 in1004.4 mb 0.00 in0.0 mm 0.00 in0.0 mm 0.00 in0.0 mm
03:50 AM 29.9°F-1.2°C 35.5°F1.9°C 88% Calm Calm -- 29.66 in1004.4 mb 0.00 in0.0 mm 0.00 in0.0 mm 0.00 in0.0 mm
03:53 AM 30.1°F-1.1°C 35.3°F1.8°C 89% Calm Calm -- 29.67 in1004.7 mb 0.00 in0.0 mm 0.00 in0.0 mm 0.00 in0.0 mm
03:56 AM 30.1°F-1.1°C 35.4°F1.9°C 88% Calm Calm -- 29.67 in1004.7 mb 0.00 in0.0 mm 0.00 in0.0 mm 0.00 in0.0 mm
03:59 AM 30.1°F-1.1°C 35.4°F1.9°C 89% Calm Calm -- 29.67 in1004.7 mb 0.00 in0.0 mm 0.00 in0.0 mm 0.00 in0.0 mm
04:02 AM 30.0°F-1.1°C 35.2°F1.8°C 88% Calm Calm -- 29.67 in1004.7 mb 0.00 in0.0 mm 0.00 in0.0 mm 0.00 in0.0 mm
04:05 AM 29.6°F-1.3°C 35.0°F1.7°C 88% Calm Calm -- 29.67 in1004.7 mb 0.00 in0.0 mm 0.00 in0.0 mm 0.00 in0.0 mm
04:08 AM 30.1°F-1.1°C 35.0°F1.7°C 88% Calm Calm -- 29.67 in1004.7 mb 0.00 in0.0 mm 0.00 in0.0 mm 0.00 in0.0 mm
04:11 AM 29.6°F-1.3°C 35.2°F1.8°C 88% Calm Calm -- 29.67 in1004.7 mb 0.00 in0.0 mm 0.00 in0.0 mm 0.00 in0.0 mm
04:14 AM 29.6°F-1.3°C 34.9°F1.6°C 88% Calm Calm -- 29.67 in1004.7 mb 0.00 in0.0 mm 0.00 in0.0 mm 0.00 in0.0 mm
04:17 AM 30.0°F-1.1°C 35.2°F1.8°C 89% Calm Calm -- 29.67 in1004.7 mb 0.00 in0.0 mm 0.00 in0.0 mm 0.00 in0.0 mm
04:20 AM 30.7°F-0.7°C 35.0°F1.7°C 89% Calm Calm -- 29.67 in1004.7 mb 0.00 in0.0 mm 0.00 in0.0 mm 0.00 in0.0 mm
04:23 AM 30.7°F-0.7°C 35.1°F1.7°C 89% Calm Calm -- 29.67 in1004.7 mb 0.00 in0.0 mm 0.00 in0.0 mm 0.00 in0.0 mm
04:26 AM 30.9°F-0.6°C 35.3°F1.8°C 89% Calm Calm -- 29.67 in1004.7 mb 0.00 in0.0 mm 0.00 in0.0 mm 0.00 in0.0 mm
04:29 AM 30.8°F-0.7°C 35.2°F1.8°C 89% Calm Calm -- 29.67 in1004.7 mb 0.00 in0.0 mm 0.00 in0.0 mm 0.00 in0.0 mm
04:32 AM 30.5°F-0.8°C 35.5°F1.9°C 90% Calm Calm -- 29.67 in1004.7 mb 0.00 in0.0 mm 0.00 in0.0 mm 0.00 in0.0 mm
04:35 AM 30.5°F-0.8°C 35.6°F2.0°C 90% Calm Calm -- 29.67 in1004.7 mb 0.00 in0.0 mm 0.00 in0.0 mm 0.00 in0.0 mm
04:38 AM 30.4°F-0.9°C 35.3°F1.8°C 90% Calm Calm -- 29.66 in1004.4 mb 0.00 in0.0 mm 0.00 in0.0 mm 0.00 in0.0 mm
04:41 AM 30.3°F-0.9°C 35.3°F1.8°C 89% Calm Calm -- 29.66 in1004.4 mb 0.00 in0.0 mm 0.00 in0.0 mm 0.00 in0.0 mm
04:44 AM 30.1°F-1.1°C 35.6°F2.0°C 90% Calm Calm -- 29.66 in1004.4 mb 0.00 in0.0 mm 0.00 in0.0 mm 0.00 in0.0 mm
04:47 AM 30.1°F-1.1°C 35.2°F1.8°C 88% Calm Calm -- 29.66 in1004.4 mb 0.00 in0.0 mm 0.00 in0.0 mm 0.00 in0.0 mm
04:50 AM 30.3°F-0.9°C 35.4°F1.9°C 89% Calm Calm -- 29.66 in1004.4 mb 0.00 in0.0 mm 0.00 in0.0 mm 0.00 in0.0 mm
04:53 AM 30.1°F-1.1°C 35.4°F1.9°C 89% Calm Calm -- 29.66 in1004.4 mb 0.00 in0.0 mm 0.00 in0.0 mm 0.00 in0.0 mm
04:56 AM 30.0°F-1.1°C 35.4°F1.9°C 89% Calm Calm -- 29.66 in1004.4 mb 0.00 in0.0 mm 0.00 in0.0 mm 0.00 in0.0 mm
04:59 AM 30.2°F-1.0°C 35.2°F1.8°C 89% Calm Calm -- 29.66 in1004.4 mb 0.00 in0.0 mm 0.00 in0.0 mm 0.00 in0.0 mm
05:02 AM 30.0°F-1.1°C 34.8°F1.6°C 88% Calm Calm -- 29.66 in1004.4 mb 0.00 in0.0 mm 0.00 in0.0 mm 0.00 in0.0 mm
05:05 AM 30.0°F-1.1°C 35.2°F1.8°C 89% Calm Calm -- 29.66 in1004.4 mb 0.00 in0.0 mm 0.00 in0.0 mm 0.00 in0.0 mm
05:08 AM 30.3°F-0.9°C 35.4°F1.9°C 89% Calm Calm -- 29.66 in1004.4 mb 0.00 in0.0 mm 0.00 in0.0 mm 0.00 in0.0 mm
05:11 AM 30.4°F-0.9°C 35.1°F1.7°C 88% Calm Calm -- 29.66 in1004.4 mb 0.00 in0.0 mm 0.00 in0.0 mm 0.00 in0.0 mm
05:14 AM 30.5°F-0.8°C 35.2°F1.8°C 89% Calm Calm -- 29.66 in1004.4 mb 0.00 in0.0 mm 0.00 in0.0 mm 0.00 in0.0 mm
05:17 AM 30.5°F-0.8°C 35.2°F1.8°C 89% Calm Calm -- 29.66 in1004.4 mb 0.00 in0.0 mm 0.00 in0.0 mm 0.00 in0.0 mm
05:20 AM 30.9°F-0.6°C 35.5°F1.9°C 90% Calm Calm -- 29.66 in1004.4 mb 0.00 in0.0 mm 0.00 in0.0 mm 0.00 in0.0 mm
05:23 AM 31.1°F-0.5°C 35.4°F1.9°C 90% Calm Calm -- 29.66 in1004.4 mb 0.00 in0.0 mm 0.00 in0.0 mm 0.00 in0.0 mm
05:26 AM 31.1°F-0.5°C 35.7°F2.1°C 90% Calm Calm -- 29.66 in1004.4 mb 0.00 in0.0 mm 0.00 in0.0 mm 0.00 in0.0 mm
05:29 AM 31.1°F-0.5°C 35.6°F2.0°C 90% Calm Calm -- 29.66 in1004.4 mb 0.00 in0.0 mm 0.00 in0.0 mm 0.00 in0.0 mm
05:32 AM 31.3°F-0.4°C 35.7°F2.1°C 90% Calm Calm -- 29.66 in1004.4 mb 0.00 in0.0 mm 0.00 in0.0 mm 0.00 in0.0 mm
05:35 AM 31.4°F-0.3°C 35.7°F2.1°C 90% Calm Calm -- 29.66 in1004.4 mb 0.00 in0.0 mm 0.00 in0.0 mm 0.00 in0.0 mm
05:38 AM 31.4°F-0.3°C 35.8°F2.1°C 91% Calm Calm -- 29.66 in1004.4 mb 0.00 in0.0 mm 0.00 in0.0 mm 0.00 in0.0 mm
05:41 AM 31.6°F-0.2°C 35.6°F2.0°C 90% Calm Calm -- 29.65 in1004.1 mb 0.00 in0.0 mm 0.00 in0.0 mm 0.00 in0.0 mm
05:44 AM 31.7°F-0.2°C 35.7°F2.1°C 91% Calm Calm -- 29.65 in1004.1 mb 0.00 in0.0 mm 0.00 in0.0 mm 0.00 in0.0 mm
05:47 AM 31.7°F-0.2°C 35.8°F2.1°C 91% Calm Calm -- 29.65 in1004.1 mb 0.00 in0.0 mm 0.00 in0.0 mm 0.00 in0.0 mm
05:50 AM 31.8°F-0.1°C 35.8°F2.1°C 91% Calm Calm -- 29.65 in1004.1 mb 0.00 in0.0 mm 0.00 in0.0 mm 0.00 in0.0 mm
05:53 AM 31.8°F-0.1°C 35.8°F2.1°C 90% Calm Calm -- 29.65 in1004.1 mb 0.00 in0.0 mm 0.00 in0.0 mm 0.00 in0.0 mm
05:56 AM 31.8°F-0.1°C 35.9°F2.2°C 90% Calm Calm -- 29.65 in1004.1 mb 0.00 in0.0 mm 0.00 in0.0 mm 0.00 in0.0 mm
05:59 AM 31.9°F-0.1°C 36.2°F2.3°C 91% Calm Calm -- 29.65 in1004.1 mb 0.00 in0.0 mm 0.00 in0.0 mm 0.00 in0.0 mm
06:02 AM 32.0°F0.0°C 36.2°F2.3°C 91% Calm Calm -- 29.64 in1003.7 mb 0.00 in0.0 mm 0.00 in0.0 mm 0.00 in0.0 mm
06:05 AM 32.1°F0.1°C 36.0°F2.2°C 91% Calm Calm -- 29.64 in1003.7 mb 0.00 in0.0 mm 0.00 in0.0 mm 0.00 in0.0 mm
06:08 AM 32.0°F0.0°C 36.2°F2.3°C 91% Calm Calm -- 29.64 in1003.7 mb 0.00 in0.0 mm 0.00 in0.0 mm 0.00 in0.0 mm
06:11 AM 32.1°F0.1°C 36.2°F2.3°C 90% Calm Calm -- 29.64 in1003.7 mb 0.00 in0.0 mm 0.00 in0.0 mm 0.00 in0.0 mm
06:14 AM 32.2°F0.1°C 36.3°F2.4°C 91% Calm Calm -- 29.64 in1003.7 mb 0.00 in0.0 mm 0.00 in0.0 mm 0.00 in0.0 mm
06:17 AM 32.1°F0.1°C 36.6°F2.6°C 91% Calm Calm -- 29.64 in1003.7 mb 0.00 in0.0 mm 0.00 in0.0 mm 0.00 in0.0 mm
06:20 AM 32.2°F0.1°C 36.3°F2.4°C 91% Calm Calm -- 29.64 in1003.7 mb 0.00 in0.0 mm 0.00 in0.0 mm 0.00 in0.0 mm
06:23 AM 32.5°F0.3°C 36.4°F2.4°C 91% Calm Calm -- 29.64 in1003.7 mb 0.00 in0.0 mm 0.00 in0.0 mm 0.00 in0.0 mm
06:26 AM 32.3°F0.2°C 36.2°F2.3°C 91% Calm Calm -- 29.64 in1003.7 mb 0.00 in0.0 mm 0.00 in0.0 mm 0.00 in0.0 mm
06:29 AM 32.3°F0.2°C 36.6°F2.6°C 91% Calm Calm -- 29.64 in1003.7 mb 0.00 in0.0 mm 0.00 in0.0 mm 0.00 in0.0 mm
06:32 AM 32.5°F0.3°C 36.6°F2.6°C 91% Calm Calm -- 29.64 in1003.7 mb 0.00 in0.0 mm 0.00 in0.0 mm 0.00 in0.0 mm
06:35 AM 32.6°F0.3°C 36.5°F2.5°C 91% Calm Calm -- 29.64 in1003.7 mb 0.00 in0.0 mm 0.00 in0.0 mm 0.00 in0.0 mm
06:41 AM 32.6°F0.3°C 36.7°F2.6°C 91% Calm Calm -- 29.64 in1003.7 mb 0.00 in0.0 mm 0.00 in0.0 mm 0.00 in0.0 mm
06:44 AM 32.8°F0.4°C 36.8°F2.7°C 91% Calm Calm -- 29.63 in1003.4 mb 0.00 in0.0 mm 0.00 in0.0 mm 0.00 in0.0 mm
06:47 AM 32.8°F0.4°C 36.7°F2.6°C 91% Calm Calm -- 29.63 in1003.4 mb 0.00 in0.0 mm 0.00 in0.0 mm 0.00 in0.0 mm
06:50 AM 32.8°F0.4°C 36.6°F2.6°C 92% Calm Calm -- 29.64 in1003.7 mb 0.00 in0.0 mm 0.00 in0.0 mm 0.00 in0.0 mm
06:53 AM 32.7°F0.4°C 36.8°F2.7°C 91% Calm Calm -- 29.63 in1003.4 mb 0.00 in0.0 mm 0.00 in0.0 mm 0.00 in0.0 mm
06:56 AM 32.7°F0.4°C 36.8°F2.7°C 91% Calm Calm -- 29.64 in1003.7 mb 0.00 in0.0 mm 0.00 in0.0 mm 0.00 in0.0 mm
07:02 AM 33.1°F0.6°C 36.7°F2.6°C 90% Calm Calm -- 29.64 in1003.7 mb 0.00 in0.0 mm 0.00 in0.0 mm 0.00 in0.0 mm
07:05 AM 33.0°F0.6°C 37.0°F2.8°C 92% Calm Calm -- 29.64 in1003.7 mb 0.00 in0.0 mm 0.00 in0.0 mm 0.00 in0.0 mm
07:08 AM 32.9°F0.5°C 37.2°F2.9°C 91% Calm Calm -- 29.64 in1003.7 mb 0.00 in0.0 mm 0.00 in0.0 mm 0.00 in0.0 mm
07:11 AM 33.0°F0.6°C 37.3°F2.9°C 92% Calm Calm -- 29.64 in1003.7 mb 0.00 in0.0 mm 0.00 in0.0 mm 0.00 in0.0 mm
07:14 AM 33.2°F0.7°C 37.3°F2.9°C 92% Calm Calm -- 29.63 in1003.4 mb 0.00 in0.0 mm 0.00 in0.0 mm 0.00 in0.0 mm
07:17 AM 33.1°F0.6°C 36.8°F2.7°C 91% Calm Calm -- 29.63 in1003.4 mb 0.00 in0.0 mm 0.00 in0.0 mm 0.00 in0.0 mm
07:20 AM 33.4°F0.8°C 37.3°F2.9°C 92% Calm Calm -- 29.63 in1003.4 mb 0.00 in0.0 mm 0.00 in0.0 mm 0.00 in0.0 mm
07:23 AM 33.5°F0.8°C 37.3°F2.9°C 92% Calm Calm -- 29.63 in1003.4 mb 0.00 in0.0 mm 0.00 in0.0 mm 0.00 in0.0 mm
07:26 AM 33.5°F0.8°C 37.6°F3.1°C 92% Calm Calm -- 29.63 in1003.4 mb 0.00 in0.0 mm 0.00 in0.0 mm 0.00 in0.0 mm
07:29 AM 33.6°F0.9°C 37.4°F3.0°C 92% Calm Calm -- 29.63 in1003.4 mb 0.00 in0.0 mm 0.00 in0.0 mm 0.00 in0.0 mm
07:32 AM 33.6°F0.9°C 37.7°F3.2°C 92% Calm Calm -- 29.63 in1003.4 mb 0.00 in0.0 mm 0.00 in0.0 mm 0.00 in0.0 mm
07:35 AM 33.6°F0.9°C 37.8°F3.2°C 92% Calm Calm -- 29.63 in1003.4 mb 0.00 in0.0 mm 0.00 in0.0 mm 0.00 in0.0 mm
07:38 AM 33.7°F0.9°C 37.8°F3.2°C 92% Calm Calm -- 29.63 in1003.4 mb 0.00 in0.0 mm 0.00 in0.0 mm 0.00 in0.0 mm
07:41 AM 33.9°F1.1°C 37.8°F3.2°C 92% Calm Calm -- 29.63 in1003.4 mb 0.00 in0.0 mm 0.00 in0.0 mm 0.00 in0.0 mm
07:44 AM 33.8°F1.0°C 37.9°F3.3°C 93% Calm Calm -- 29.62 in1003.0 mb 0.00 in0.0 mm 0.00 in0.0 mm 0.00 in0.0 mm
07:47 AM 33.8°F1.0°C 37.9°F3.3°C 93% Calm Calm -- 29.62 in1003.0 mb 0.00 in0.0 mm 0.00 in0.0 mm 0.00 in0.0 mm
07:50 AM 33.8°F1.0°C 38.0°F3.3°C 93% Calm Calm -- 29.62 in1003.0 mb 0.00 in0.0 mm 0.00 in0.0 mm 0.00 in0.0 mm
07:53 AM 33.8°F1.0°C 38.1°F3.4°C 93% Calm Calm -- 29.62 in1003.0 mb 0.00 in0.0 mm 0.00 in0.0 mm 0.00 in0.0 mm
07:56 AM 33.9°F1.1°C 38.0°F3.3°C 93% Calm Calm -- 29.62 in1003.0 mb 0.00 in0.0 mm 0.00 in0.0 mm 0.00 in0.0 mm
07:59 AM 33.9°F1.1°C 38.2°F3.4°C 93% Calm Calm -- 29.62 in1003.0 mb 0.00 in0.0 mm 0.00 in0.0 mm 0.00 in0.0 mm
08:02 AM 33.9°F1.1°C 38.3°F3.5°C 93% Calm Calm -- 29.62 in1003.0 mb 0.00 in0.0 mm 0.00 in0.0 mm 0.00 in0.0 mm
08:05 AM 33.9°F1.1°C 38.2°F3.4°C 93% Calm Calm -- 29.62 in1003.0 mb 0.00 in0.0 mm 0.00 in0.0 mm 0.00 in0.0 mm
08:08 AM 33.9°F1.1°C 38.2°F3.4°C 93% Calm Calm -- 29.62 in1003.0 mb 0.00 in0.0 mm 0.00 in0.0 mm 0.00 in0.0 mm
08:11 AM 34.1°F1.2°C 38.2°F3.4°C 93% Calm Calm -- 29.62 in1003.0 mb 0.00 in0.0 mm 0.00 in0.0 mm 0.00 in0.0 mm
08:14 AM 34.3°F1.3°C 38.2°F3.4°C 93% Calm Calm -- 29.62 in1003.0 mb 0.00 in0.0 mm 0.00 in0.0 mm 0.00 in0.0 mm
08:17 AM 34.1°F1.2°C 38.3°F3.5°C 94% Calm Calm -- 29.61 in1002.7 mb 0.00 in0.0 mm 0.00 in0.0 mm 0.00 in0.0 mm
08:20 AM 34.1°F1.2°C 38.3°F3.5°C 93% Calm Calm -- 29.61 in1002.7 mb 0.00 in0.0 mm 0.00 in0.0 mm 0.00 in0.0 mm
08:23 AM 34.3°F1.3°C 38.4°F3.6°C 93% Calm Calm -- 29.60 in1002.4 mb 0.00 in0.0 mm 0.00 in0.0 mm 0.00 in0.0 mm
08:26 AM 34.4°F1.3°C 38.7°F3.7°C 93% Calm Calm -- 29.60 in1002.4 mb 0.00 in0.0 mm 0.00 in0.0 mm 0.00 in0.0 mm
08:29 AM 34.4°F1.3°C 38.6°F3.7°C 93% Calm Calm -- 29.61 in1002.7 mb 0.00 in0.0 mm 0.00 in0.0 mm 0.00 in0.0 mm
08:32 AM 34.4°F1.3°C 38.5°F3.6°C 92% Calm Calm -- 29.61 in1002.7 mb 0.00 in0.0 mm 0.00 in0.0 mm 0.00 in0.0 mm
08:35 AM 34.5°F1.4°C 38.5°F3.6°C 93% Calm Calm -- 29.61 in1002.7 mb 0.00 in0.0 mm 0.00 in0.0 mm 0.00 in0.0 mm
08:38 AM 34.4°F1.3°C 38.4°F3.6°C 93% Calm Calm -- 29.61 in1002.7 mb 0.00 in0.0 mm 0.00 in0.0 mm 0.00 in0.0 mm
08:41 AM 34.6°F1.4°C 38.6°F3.7°C 93% Calm Calm -- 29.61 in1002.7 mb 0.00 in0.0 mm 0.00 in0.0 mm 0.00 in0.0 mm
08:44 AM 34.7°F1.5°C 38.7°F3.7°C 93% Calm Calm -- 29.60 in1002.4 mb 0.00 in0.0 mm 0.00 in0.0 mm 0.00 in0.0 mm
08:47 AM 34.8°F1.6°C 39.0°F3.9°C 93% Calm Calm -- 29.60 in1002.4 mb 0.00 in0.0 mm 0.00 in0.0 mm 0.00 in0.0 mm
08:50 AM 34.9°F1.6°C 39.2°F4.0°C 93% Calm Calm -- 29.60 in1002.4 mb 0.00 in0.0 mm 0.00 in0.0 mm 0.00 in0.0 mm
08:53 AM 35.0°F1.7°C 38.8°F3.8°C 93% Calm Calm -- 29.60 in1002.4 mb 0.00 in0.0 mm 0.00 in0.0 mm 0.00 in0.0 mm
08:55 AM 34.9°F1.6°C 38.8°F3.8°C 93% Calm Calm -- 29.60 in1002.4 mb 0.00 in0.0 mm 0.00 in0.0 mm 0.00 in0.0 mm
08:57 AM 34.9°F1.6°C 38.9°F3.8°C 93% Calm Calm -- 29.60 in1002.4 mb 0.00 in0.0 mm 0.00 in0.0 mm 0.00 in0.0 mm
08:58 AM 34.9°F1.6°C 38.9°F3.8°C 93% Calm Calm -- 29.60 in1002.4 mb 0.00 in0.0 mm 0.00 in0.0 mm 0.00 in0.0 mm
09:01 AM 35.0°F1.7°C 39.0°F3.9°C 93% Calm Calm -- 29.59 in1002.0 mb 0.00 in0.0 mm 0.00 in0.0 mm 0.00 in0.0 mm
09:04 AM 35.0°F1.7°C 38.7°F3.7°C 92% Calm Calm -- 29.59 in1002.0 mb 0.00 in0.0 mm 0.00 in0.0 mm 0.00 in0.0 mm
09:07 AM 35.2°F1.8°C 39.0°F3.9°C 93% Calm Calm -- 29.59 in1002.0 mb 0.00 in0.0 mm 0.00 in0.0 mm 0.00 in0.0 mm
09:10 AM 35.2°F1.8°C 39.3°F4.1°C 93% Calm Calm -- 29.58 in1001.7 mb 0.00 in0.0 mm 0.00 in0.0 mm 0.00 in0.0 mm
09:13 AM 35.2°F1.8°C 39.2°F4.0°C 94% Calm Calm -- 29.59 in1002.0 mb 0.00 in0.0 mm 0.00 in0.0 mm 0.00 in0.0 mm
09:16 AM 35.3°F1.8°C 39.4°F4.1°C 94% Calm Calm -- 29.58 in1001.7 mb 0.00 in0.0 mm 0.00 in0.0 mm 0.00 in0.0 mm
09:19 AM 35.3°F1.8°C 39.6°F4.2°C 94% Calm Calm -- 29.57 in1001.4 mb 0.00 in0.0 mm 0.00 in0.0 mm 0.00 in0.0 mm
09:22 AM 35.3°F1.8°C 39.4°F4.1°C 94% Calm Calm -- 29.57 in1001.4 mb 0.00 in0.0 mm 0.00 in0.0 mm 0.00 in0.0 mm
09:25 AM 35.3°F1.8°C 39.6°F4.2°C 94% Calm Calm -- 29.57 in1001.4 mb 0.00 in0.0 mm 0.00 in0.0 mm 0.00 in0.0 mm
09:28 AM 35.4°F1.9°C 39.6°F4.2°C 94% Calm Calm -- 29.57 in1001.4 mb 0.00 in0.0 mm 0.00 in0.0 mm 0.00 in0.0 mm
09:31 AM 35.5°F1.9°C 39.6°F4.2°C 94% Calm Calm -- 29.57 in1001.4 mb 0.00 in0.0 mm 0.00 in0.0 mm 0.00 in0.0 mm
09:34 AM 35.5°F1.9°C 39.7°F4.3°C 94% Calm Calm -- 29.56 in1001.0 mb 0.00 in0.0 mm 0.00 in0.0 mm 0.00 in0.0 mm
09:37 AM 35.6°F2.0°C 39.3°F4.1°C 93% Calm Calm -- 29.56 in1001.0 mb 0.00 in0.0 mm 0.00 in0.0 mm 0.00 in0.0 mm
09:40 AM 35.8°F2.1°C 39.8°F4.3°C 94% Calm Calm -- 29.56 in1001.0 mb 0.00 in0.0 mm 0.00 in0.0 mm 0.00 in0.0 mm
09:43 AM 35.8°F2.1°C 39.9°F4.4°C 94% Calm Calm -- 29.56 in1001.0 mb 0.00 in0.0 mm 0.00 in0.0 mm 0.00 in0.0 mm
09:46 AM 36.1°F2.3°C 39.7°F4.3°C 94% Calm Calm -- 29.56 in1001.0 mb 0.00 in0.0 mm 0.00 in0.0 mm 0.00 in0.0 mm
09:52 AM 35.9°F2.2°C 40.1°F4.5°C 94% Calm Calm -- 29.55 in1000.7 mb 0.00 in0.0 mm 0.00 in0.0 mm 0.00 in0.0 mm
09:55 AM 36.1°F2.3°C 40.2°F4.6°C 94% Calm Calm -- 29.55 in1000.7 mb 0.00 in0.0 mm 0.00 in0.0 mm 0.00 in0.0 mm
09:58 AM 36.1°F2.3°C 40.1°F4.5°C 94% Calm Calm -- 29.55 in1000.7 mb 0.00 in0.0 mm 0.00 in0.0 mm 0.00 in0.0 mm
10:01 AM 35.9°F2.2°C 39.9°F4.4°C 92% Calm Calm -- 29.55 in1000.7 mb 0.00 in0.0 mm 0.00 in0.0 mm 0.00 in0.0 mm
10:04 AM 36.2°F2.3°C 40.1°F4.5°C 92% Calm Calm -- 29.55 in1000.7 mb 0.00 in0.0 mm 0.00 in0.0 mm 0.00 in0.0 mm
10:07 AM 36.4°F2.4°C 40.3°F4.6°C 94% Calm Calm -- 29.54 in1000.3 mb 0.00 in0.0 mm 0.00 in0.0 mm 0.00 in0.0 mm
10:10 AM 36.4°F2.4°C 40.2°F4.6°C 93% Calm Calm -- 29.53 in1000.0 mb 0.00 in0.0 mm 0.00 in0.0 mm 0.00 in0.0 mm
10:13 AM 36.5°F2.5°C 40.4°F4.7°C 93% Calm Calm -- 29.53 in1000.0 mb 0.00 in0.0 mm 0.00 in0.0 mm 0.00 in0.0 mm
10:16 AM 36.4°F2.4°C 40.1°F4.5°C 92% Calm Calm -- 29.53 in1000.0 mb 0.00 in0.0 mm 0.00 in0.0 mm 0.00 in0.0 mm
10:19 AM 36.6°F2.6°C 40.6°F4.8°C 94% Calm Calm -- 29.53 in1000.0 mb 0.00 in0.0 mm 0.00 in0.0 mm 0.00 in0.0 mm
10:22 AM 36.8°F2.7°C 40.4°F4.7°C 93% Calm Calm -- 29.53 in1000.0 mb 0.00 in0.0 mm 0.00 in0.0 mm 0.00 in0.0 mm
10:25 AM 36.7°F2.6°C 40.6°F4.8°C 93% Calm Calm -- 29.52 in999.7 mb 0.00 in0.0 mm 0.00 in0.0 mm 0.00 in0.0 mm
10:28 AM 37.0°F2.8°C 40.8°F4.9°C 94% Calm Calm -- 29.52 in999.7 mb 0.00 in0.0 mm 0.00 in0.0 mm 0.00 in0.0 mm
10:31 AM 36.6°F2.6°C 40.9°F4.9°C 94% Calm Calm -- 29.52 in999.7 mb 0.00 in0.0 mm 0.00 in0.0 mm 0.00 in0.0 mm
10:34 AM 36.5°F2.5°C 41.0°F5.0°C 94% Calm Calm -- 29.52 in999.7 mb 0.00 in0.0 mm 0.00 in0.0 mm 0.00 in0.0 mm
10:37 AM 36.5°F2.5°C 41.0°F5.0°C 94% Calm Calm -- 29.52 in999.7 mb 0.00 in0.0 mm 0.00 in0.0 mm 0.00 in0.0 mm
10:40 AM 36.7°F2.6°C 40.9°F4.9°C 93% Calm Calm -- 29.52 in999.7 mb 0.00 in0.0 mm 0.00 in0.0 mm 0.00 in0.0 mm
10:43 AM 36.8°F2.7°C 40.9°F4.9°C 93% Calm Calm -- 29.52 in999.7 mb 0.00 in0.0 mm 0.00 in0.0 mm 0.00 in0.0 mm
10:46 AM 36.7°F2.6°C 40.9°F4.9°C 93% Calm Calm -- 29.52 in999.7 mb 0.00 in0.0 mm 0.00 in0.0 mm 0.00 in0.0 mm
10:49 AM 36.5°F2.5°C 40.9°F4.9°C 93% Calm Calm -- 29.52 in999.7 mb 0.00 in0.0 mm 0.00 in0.0 mm 0.00 in0.0 mm
10:52 AM 36.6°F2.6°C 40.8°F4.9°C 92% Calm Calm -- 29.52 in999.7 mb 0.00 in0.0 mm 0.00 in0.0 mm 0.00 in0.0 mm
10:55 AM 36.8°F2.7°C 41.0°F5.0°C 93% Calm Calm -- 29.51 in999.3 mb 0.00 in0.0 mm 0.00 in0.0 mm 0.00 in0.0 mm
10:58 AM 36.7°F2.6°C 40.6°F4.8°C 92% Calm Calm -- 29.51 in999.3 mb 0.00 in0.0 mm 0.00 in0.0 mm 0.00 in0.0 mm
11:01 AM 37.2°F2.9°C 41.0°F5.0°C 93% Calm Calm -- 29.51 in999.3 mb 0.00 in0.0 mm 0.00 in0.0 mm 0.00 in0.0 mm
11:04 AM 37.0°F2.8°C 41.1°F5.1°C 93% Calm Calm -- 29.51 in999.3 mb 0.00 in0.0 mm 0.00 in0.0 mm 0.00 in0.0 mm
11:07 AM 37.1°F2.8°C 41.1°F5.1°C 93% Calm Calm -- 29.51 in999.3 mb 0.00 in0.0 mm 0.00 in0.0 mm 0.00 in0.0 mm
11:10 AM 37.1°F2.8°C 41.3°F5.2°C 93% Calm Calm -- 29.51 in999.3 mb 0.00 in0.0 mm 0.00 in0.0 mm 0.00 in0.0 mm
11:13 AM 36.7°F2.6°C 41.4°F5.2°C 93% Calm Calm -- 29.50 in999.0 mb 0.00 in0.0 mm 0.00 in0.0 mm 0.00 in0.0 mm
11:16 AM 37.1°F2.8°C 41.1°F5.1°C 93% Calm Calm -- 29.50 in999.0 mb 0.00 in0.0 mm 0.00 in0.0 mm 0.00 in0.0 mm
11:19 AM 37.0°F2.8°C 41.3°F5.2°C 93% Calm Calm -- 29.50 in999.0 mb 0.00 in0.0 mm 0.00 in0.0 mm 0.00 in0.0 mm
11:22 AM 37.0°F2.8°C 41.3°F5.2°C 93% Calm Calm -- 29.50 in999.0 mb 0.00 in0.0 mm 0.00 in0.0 mm 0.00 in0.0 mm
11:25 AM 37.1°F2.8°C 41.4°F5.2°C 93% Calm Calm -- 29.50 in999.0 mb 0.00 in0.0 mm 0.00 in0.0 mm 0.00 in0.0 mm
11:28 AM 37.0°F2.8°C 41.3°F5.2°C 93% Calm Calm -- 29.49 in998.6 mb 0.00 in0.0 mm 0.00 in0.0 mm 0.00 in0.0 mm
11:31 AM 37.3°F2.9°C 41.3°F5.2°C 93% Calm Calm -- 29.49 in998.6 mb 0.00 in0.0 mm 0.00 in0.0 mm 0.00 in0.0 mm
11:34 AM 37.3°F2.9°C 41.6°F5.3°C 93% Calm Calm -- 29.49 in998.6 mb 0.00 in0.0 mm 0.00 in0.0 mm 0.00 in0.0 mm
11:37 AM 37.3°F2.9°C 41.4°F5.2°C 93% Calm Calm -- 29.49 in998.6 mb 0.00 in0.0 mm 0.00 in0.0 mm 0.00 in0.0 mm
11:40 AM 37.3°F2.9°C 41.5°F5.3°C 93% Calm Calm -- 29.48 in998.3 mb 0.00 in0.0 mm 0.00 in0.0 mm 0.00 in0.0 mm
11:43 AM 37.3°F2.9°C 41.4°F5.2°C 93% Calm Calm -- 29.48 in998.3 mb 0.00 in0.0 mm 0.00 in0.0 mm 0.00 in0.0 mm
11:46 AM 37.4°F3.0°C 41.5°F5.3°C 93% Calm Calm -- 29.48 in998.3 mb 0.00 in0.0 mm 0.00 in0.0 mm 0.00 in0.0 mm
11:49 AM 37.5°F3.1°C 41.7°F5.4°C 93% Calm Calm -- 29.47 in998.0 mb 0.00 in0.0 mm 0.00 in0.0 mm 0.00 in0.0 mm
11:52 AM 37.5°F3.1°C 41.5°F5.3°C 93% Calm Calm -- 29.47 in998.0 mb 0.00 in0.0 mm 0.00 in0.0 mm 0.00 in0.0 mm
11:55 AM 37.5°F3.1°C 41.4°F5.2°C 93% Calm Calm -- 29.47 in998.0 mb 0.00 in0.0 mm 0.00 in0.0 mm 0.00 in0.0 mm
11:58 AM 37.7°F3.2°C 41.5°F5.3°C 93% Calm Calm -- 29.47 in998.0 mb 0.00 in0.0 mm 0.00 in0.0 mm 0.00 in0.0 mm
12:01 PM 37.6°F3.1°C 41.4°F5.2°C 92% Calm Calm -- 29.47 in998.0 mb 0.00 in0.0 mm 0.00 in0.0 mm 0.00 in0.0 mm
12:04 PM 37.5°F3.1°C 41.5°F5.3°C 93% 1.6 mph SE2.6 kmh SE 1.6 mph2.6 kmh 29.47 in998.0 mb 0.00 in0.0 mm 0.00 in0.0 mm 0.00 in0.0 mm
12:07 PM 37.4°F3.0°C 41.8°F5.4°C 93% 1.6 mph SSE2.6 kmh SSE 1.6 mph2.6 kmh 29.47 in998.0 mb 0.00 in0.0 mm 0.00 in0.0 mm 0.02 in0.5 mm
12:10 PM 37.5°F3.1°C 41.5°F5.3°C 93% 1.9 mph SSE3.1 kmh SSE 1.9 mph3.1 kmh 29.47 in998.0 mb 0.00 in0.0 mm 0.00 in0.0 mm 0.02 in0.5 mm
12:13 PM 37.4°F3.0°C 41.4°F5.2°C 93% Calm Calm -- 29.47 in998.0 mb 0.00 in0.0 mm 0.00 in0.0 mm 0.02 in0.5 mm
12:16 PM 37.2°F2.9°C 40.8°F4.9°C 91% 2.8 mph ESE4.5 kmh ESE 2.9 mph4.7 kmh 29.46 in997.6 mb 0.00 in0.0 mm 0.00 in0.0 mm 0.02 in0.5 mm
12:19 PM 37.3°F2.9°C 41.4°F5.2°C 92% Calm Calm -- 29.46 in997.6 mb 0.00 in0.0 mm 0.00 in0.0 mm 0.02 in0.5 mm
12:22 PM 37.3°F2.9°C 41.5°F5.3°C 92% Calm Calm -- 29.46 in997.6 mb 0.00 in0.0 mm 0.00 in0.0 mm 0.02 in0.5 mm
12:25 PM 37.4°F3.0°C 41.2°F5.1°C 92% Calm Calm -- 29.46 in997.6 mb 0.00 in0.0 mm 0.00 in0.0 mm 0.04 in1.0 mm
12:28 PM 37.3°F2.9°C 41.3°F5.2°C 92% Calm Calm -- 29.46 in997.6 mb 0.00 in0.0 mm 0.00 in0.0 mm 0.04 in1.0 mm
12:31 PM 37.4°F3.0°C 41.4°F5.2°C 92% Calm Calm -- 29.46 in997.6 mb 0.00 in0.0 mm 0.00 in0.0 mm 0.04 in1.0 mm
12:34 PM 37.2°F2.9°C 41.2°F5.1°C 92% Calm Calm -- 29.46 in997.6 mb 0.00 in0.0 mm 0.00 in0.0 mm 0.04 in1.0 mm
12:37 PM 37.2°F2.9°C 41.4°F5.2°C 92% 2.0 mph SW3.2 kmh SW 2.0 mph3.2 kmh 29.45 in997.3 mb 0.00 in0.0 mm 0.00 in0.0 mm 0.04 in1.0 mm
12:40 PM 37.0°F2.8°C 41.4°F5.2°C 92% 1.6 mph SW2.6 kmh SW 1.6 mph2.6 kmh 29.45 in997.3 mb 0.00 in0.0 mm 0.00 in0.0 mm 0.04 in1.0 mm
12:43 PM 36.8°F2.7°C 41.2°F5.1°C 92% Calm Calm -- 29.46 in997.6 mb 0.00 in0.0 mm 0.00 in0.0 mm 0.06 in1.5 mm
12:46 PM 36.8°F2.7°C 41.2°F5.1°C 91% Calm Calm -- 29.45 in997.3 mb 0.00 in0.0 mm 0.00 in0.0 mm 0.06 in1.5 mm
12:49 PM 36.7°F2.6°C 41.0°F5.0°C 91% Calm Calm -- 29.45 in997.3 mb 0.00 in0.0 mm 0.00 in0.0 mm 0.06 in1.5 mm
12:52 PM 36.7°F2.6°C 40.9°F4.9°C 91% Calm Calm -- 29.45 in997.3 mb 0.00 in0.0 mm 0.00 in0.0 mm 0.06 in1.5 mm
12:55 PM 36.6°F2.6°C 40.8°F4.9°C 91% Calm Calm -- 29.44 in997.0 mb 0.00 in0.0 mm 0.00 in0.0 mm 0.06 in1.5 mm
12:58 PM 36.5°F2.5°C 40.6°F4.8°C 91% Calm Calm -- 29.43 in996.6 mb 0.00 in0.0 mm 0.00 in0.0 mm 0.08 in2.0 mm
01:01 PM 36.2°F2.3°C 40.3°F4.6°C 90% 1.6 mph SE2.6 kmh SE 1.6 mph2.6 kmh 29.43 in996.6 mb 0.00 in0.0 mm 0.00 in0.0 mm 0.08 in2.0 mm
01:04 PM 36.2°F2.3°C 39.9°F4.4°C 90% 2.4 mph SSE3.9 kmh SSE 2.4 mph3.9 kmh 29.43 in996.6 mb 0.00 in0.0 mm 0.00 in0.0 mm 0.08 in2.0 mm
01:07 PM 35.9°F2.2°C 39.5°F4.2°C 89% Calm Calm -- 29.42 in996.3 mb 0.00 in0.0 mm 0.00 in0.0 mm 0.08 in2.0 mm
01:10 PM 36.1°F2.3°C 39.9°F4.4°C 90% Calm Calm -- 29.42 in996.3 mb 0.00 in0.0 mm 0.00 in0.0 mm 0.10 in2.5 mm
01:13 PM 35.9°F2.2°C 39.8°F4.3°C 90% 1.2 mph ESE1.9 kmh ESE 1.2 mph1.9 kmh 29.41 in995.9 mb 0.00 in0.0 mm 0.00 in0.0 mm 0.10 in2.5 mm
01:16 PM 36.1°F2.3°C 39.8°F4.3°C 90% 3.2 mph ESE5.1 kmh ESE 3.2 mph5.1 kmh 29.40 in995.6 mb 0.00 in0.0 mm 0.00 in0.0 mm 0.10 in2.5 mm
01:19 PM 36.1°F2.3°C 39.8°F4.3°C 90% 0.4 mph ESE0.6 kmh ESE 0.4 mph0.6 kmh 29.40 in995.6 mb 0.00 in0.0 mm 0.00 in0.0 mm 0.10 in2.5 mm
01:22 PM 36.1°F2.3°C 39.5°F4.2°C 91% 3.2 mph SE5.1 kmh SE 3.3 mph5.3 kmh 29.40 in995.6 mb 0.00 in0.0 mm 0.00 in0.0 mm 0.10 in2.5 mm
01:25 PM 36.2°F2.3°C 39.8°F4.3°C 91% 1.2 mph SE1.9 kmh SE 1.2 mph1.9 kmh 29.40 in995.6 mb 0.00 in0.0 mm 0.00 in0.0 mm 0.10 in2.5 mm
01:28 PM 36.3°F2.4°C 39.8°F4.3°C 91% Calm Calm -- 29.40 in995.6 mb 0.00 in0.0 mm 0.00 in0.0 mm 0.10 in2.5 mm
01:31 PM 36.2°F2.3°C 39.3°F4.1°C 90% 0.4 mph SE0.6 kmh SE 0.4 mph0.6 kmh 29.39 in995.3 mb 0.00 in0.0 mm 0.00 in0.0 mm 0.10 in2.5 mm
01:34 PM 36.2°F2.3°C 39.8°F4.3°C 91% 2.0 mph SE3.2 kmh SE 2.0 mph3.2 kmh 29.39 in995.3 mb 0.00 in0.0 mm 0.00 in0.0 mm 0.10 in2.5 mm
01:37 PM 36.1°F2.3°C 39.6°F4.2°C 90% 3.6 mph ESE5.8 kmh ESE 3.7 mph6.0 kmh 29.39 in995.3 mb 0.00 in0.0 mm 0.00 in0.0 mm 0.10 in2.5 mm
01:40 PM 35.9°F2.2°C 39.7°F4.3°C 91% 2.0 mph NNW3.2 kmh NNW 2.0 mph3.2 kmh 29.39 in995.3 mb 0.00 in0.0 mm 0.00 in0.0 mm 0.10 in2.5 mm
01:43 PM 35.8°F2.1°C 39.4°F4.1°C 91% 2.0 mph NNW3.2 kmh NNW 2.0 mph3.2 kmh 29.39 in995.3 mb 0.00 in0.0 mm 0.00 in0.0 mm 0.10 in2.5 mm
01:46 PM 35.8°F2.1°C 39.4°F4.1°C 90% 2.0 mph SE3.2 kmh SE 2.0 mph3.2 kmh 29.39 in995.3 mb 0.00 in0.0 mm 0.00 in0.0 mm 0.10 in2.5 mm
01:49 PM 35.7°F2.1°C 39.2°F4.0°C 91% 1.9 mph SE3.1 kmh SE 1.9 mph3.1 kmh 29.38 in994.9 mb 0.00 in0.0 mm 0.00 in0.0 mm 0.10 in2.5 mm
01:52 PM 35.7°F2.1°C 39.3°F4.1°C 91% 2.0 mph SE3.2 kmh SE 2.0 mph3.2 kmh 29.38 in994.9 mb 0.00 in0.0 mm 0.00 in0.0 mm 0.10 in2.5 mm
01:55 PM 35.7°F2.1°C 39.6°F4.2°C 91% 1.6 mph SE2.6 kmh SE 1.6 mph2.6 kmh 29.38 in994.9 mb 0.00 in0.0 mm 0.00 in0.0 mm 0.10 in2.5 mm
01:58 PM 35.7°F2.1°C 39.5°F4.2°C 91% Calm Calm -- 29.38 in994.9 mb 0.00 in0.0 mm 0.00 in0.0 mm 0.10 in2.5 mm
02:01 PM 35.8°F2.1°C 39.7°F4.3°C 91% Calm Calm -- 29.38 in994.9 mb 0.00 in0.0 mm 0.00 in0.0 mm 0.10 in2.5 mm
02:04 PM 35.8°F2.1°C 39.6°F4.2°C 91% Calm Calm -- 29.38 in994.9 mb 0.00 in0.0 mm 0.00 in0.0 mm 0.12 in3.0 mm
02:07 PM 35.8°F2.1°C 39.6°F4.2°C 91% Calm Calm -- 29.38 in994.9 mb 0.00 in0.0 mm 0.00 in0.0 mm 0.12 in3.0 mm
02:10 PM 35.9°F2.2°C 39.7°F4.3°C 90% Calm Calm -- 29.38 in994.9 mb 0.00 in0.0 mm 0.00 in0.0 mm 0.12 in3.0 mm
02:13 PM 35.8°F2.1°C 39.5°F4.2°C 90% 0.8 mph ESE1.3 kmh ESE 0.8 mph1.3 kmh 29.38 in994.9 mb 0.00 in0.0 mm 0.00 in0.0 mm 0.12 in3.0 mm
02:16 PM 35.7°F2.1°C 39.6°F4.2°C 90% 0.4 mph ESE0.6 kmh ESE 0.4 mph0.6 kmh 29.37 in994.6 mb 0.00 in0.0 mm 0.00 in0.0 mm 0.12 in3.0 mm
02:19 PM 35.6°F2.0°C 39.3°F4.1°C 90% 0.4 mph ESE0.6 kmh ESE 0.4 mph0.6 kmh 29.36 in994.2 mb 0.00 in0.0 mm 0.00 in0.0 mm 0.12 in3.0 mm
02:22 PM 35.5°F1.9°C 39.2°F4.0°C 90% 0.8 mph SE1.3 kmh SE 0.8 mph1.3 kmh 29.36 in994.2 mb 0.00 in0.0 mm 0.00 in0.0 mm 0.12 in3.0 mm
02:25 PM 35.4°F1.9°C 39.2°F4.0°C 90% Calm Calm -- 29.36 in994.2 mb 0.00 in0.0 mm 0.00 in0.0 mm 0.12 in3.0 mm
02:28 PM 35.4°F1.9°C 39.2°F4.0°C 90% Calm Calm -- 29.36 in994.2 mb 0.00 in0.0 mm 0.00 in0.0 mm 0.12 in3.0 mm
02:31 PM 35.4°F1.9°C 39.4°F4.1°C 90% Calm Calm -- 29.35 in993.9 mb 0.00 in0.0 mm 0.00 in0.0 mm 0.12 in3.0 mm
02:34 PM 35.4°F1.9°C 39.1°F3.9°C 89% Calm Calm -- 29.35 in993.9 mb 0.00 in0.0 mm 0.00 in0.0 mm 0.12 in3.0 mm
02:37 PM 35.4°F1.9°C 39.5°F4.2°C 90% Calm Calm -- 29.35 in993.9 mb 0.00 in0.0 mm 0.00 in0.0 mm 0.12 in3.0 mm
02:40 PM 35.2°F1.8°C 39.2°F4.0°C 90% Calm Calm -- 29.35 in993.9 mb 0.00 in0.0 mm 0.00 in0.0 mm 0.12 in3.0 mm
02:43 PM 35.2°F1.8°C 39.1°F3.9°C 89% Calm Calm -- 29.36 in994.2 mb 0.00 in0.0 mm 0.00 in0.0 mm 0.12 in3.0 mm
02:46 PM 35.2°F1.8°C 39.1°F3.9°C 89% Calm Calm -- 29.36 in994.2 mb 0.00 in0.0 mm 0.00 in0.0 mm 0.14 in3.6 mm
02:49 PM 35.0°F1.7°C 39.2°F4.0°C 89% Calm Calm -- 29.35 in993.9 mb 0.00 in0.0 mm 0.00 in0.0 mm 0.14 in3.6 mm
02:55 PM 34.9°F1.6°C 39.0°F3.9°C 89% Calm Calm -- 29.35 in993.9 mb 0.00 in0.0 mm 0.00 in0.0 mm 0.14 in3.6 mm
02:58 PM 35.0°F1.7°C 39.1°F3.9°C 89% Calm Calm -- 29.35 in993.9 mb 0.00 in0.0 mm 0.00 in0.0 mm 0.14 in3.6 mm
03:01 PM 35.0°F1.7°C 39.1°F3.9°C 89% Calm Calm -- 29.35 in993.9 mb 0.00 in0.0 mm 0.00 in0.0 mm 0.16 in4.1 mm
03:04 PM 35.0°F1.7°C 39.2°F4.0°C 89% Calm Calm -- 29.35 in993.9 mb 0.00 in0.0 mm 0.00 in0.0 mm 0.16 in4.1 mm
03:07 PM 34.8°F1.6°C 39.2°F4.0°C 90% Calm Calm -- 29.35 in993.9 mb 0.00 in0.0 mm 0.00 in0.0 mm 0.16 in4.1 mm
03:10 PM 34.6°F1.4°C 39.1°F3.9°C 89% Calm Calm -- 29.35 in993.9 mb 0.00 in0.0 mm 0.00 in0.0 mm 0.16 in4.1 mm
03:13 PM 34.5°F1.4°C 39.1°F3.9°C 89% 0.4 mph NNW0.6 kmh NNW 0.4 mph0.6 kmh 29.35 in993.9 mb 0.00 in0.0 mm 0.00 in0.0 mm 0.16 in4.1 mm
03:16 PM 34.5°F1.4°C 39.0°F3.9°C 89% 1.2 mph 1.9 kmh 1.2 mph1.9 kmh 29.35 in993.9 mb 0.00 in0.0 mm 0.00 in0.0 mm 0.16 in4.1 mm
03:19 PM 34.6°F1.4°C 38.9°F3.8°C 89% Calm Calm -- 29.34 in993.6 mb 0.00 in0.0 mm 0.00 in0.0 mm 0.16 in4.1 mm
03:22 PM 34.6°F1.4°C 38.9°F3.8°C 89% Calm Calm -- 29.34 in993.6 mb 0.00 in0.0 mm 0.00 in0.0 mm 0.18 in4.6 mm
03:25 PM 34.7°F1.5°C 38.9°F3.8°C 89% Calm Calm -- 29.33 in993.2 mb 0.00 in0.0 mm 0.00 in0.0 mm 0.18 in4.6 mm
03:28 PM 34.7°F1.5°C 38.8°F3.8°C 89% Calm Calm -- 29.33 in993.2 mb 0.00 in0.0 mm 0.00 in0.0 mm 0.18 in4.6 mm
03:31 PM 34.8°F1.6°C 38.9°F3.8°C 89% Calm Calm -- 29.34 in993.6 mb 0.00 in0.0 mm 0.00 in0.0 mm 0.18 in4.6 mm
03:34 PM 34.9°F1.6°C 39.1°F3.9°C 89% Calm Calm -- 29.33 in993.2 mb 0.00 in0.0 mm 0.00 in0.0 mm 0.18 in4.6 mm
03:37 PM 34.8°F1.6°C 38.9°F3.8°C 89% Calm Calm -- 29.33 in993.2 mb 0.00 in0.0 mm 0.00 in0.0 mm 0.18 in4.6 mm
03:40 PM 34.8°F1.6°C 38.9°F3.8°C 90% Calm Calm -- 29.33 in993.2 mb 0.00 in0.0 mm 0.00 in0.0 mm 0.18 in4.6 mm
03:43 PM 35.0°F1.7°C 39.1°F3.9°C 89% Calm Calm -- 29.33 in993.2 mb 0.00 in0.0 mm 0.00 in0.0 mm 0.18 in4.6 mm
03:46 PM 34.9°F1.6°C 39.0°F3.9°C 90% Calm Calm -- 29.33 in993.2 mb 0.00 in0.0 mm 0.00 in0.0 mm 0.18 in4.6 mm
03:49 PM 34.9°F1.6°C 39.0°F3.9°C 90% Calm Calm -- 29.33 in993.2 mb 0.00 in0.0 mm 0.00 in0.0 mm 0.18 in4.6 mm
03:52 PM 35.0°F1.7°C 39.0°F3.9°C 89% Calm Calm -- 29.33 in993.2 mb 0.00 in0.0 mm 0.00 in0.0 mm 0.18 in4.6 mm
03:55 PM 35.3°F1.8°C 39.1°F3.9°C 90% 6.0 mph NE9.7 kmh NE 6.0 mph9.7 kmh 29.33 in993.2 mb 0.00 in0.0 mm 0.00 in0.0 mm 0.20 in5.1 mm
03:58 PM 35.3°F1.8°C 39.1°F3.9°C 90% Calm Calm -- 29.33 in993.2 mb 0.00 in0.0 mm 0.00 in0.0 mm 0.20 in5.1 mm
04:01 PM 35.3°F1.8°C 39.1°F3.9°C 90% 4.5 mph NE7.2 kmh NE 4.5 mph7.2 kmh 29.33 in993.2 mb 0.00 in0.0 mm 0.00 in0.0 mm 0.20 in5.1 mm
04:04 PM 35.3°F1.8°C 39.3°F4.1°C 90% Calm Calm -- 29.33 in993.2 mb 0.00 in0.0 mm 0.00 in0.0 mm 0.20 in5.1 mm
04:07 PM 35.3°F1.8°C 39.2°F4.0°C 90% Calm Calm -- 29.33 in993.2 mb 0.00 in0.0 mm 0.00 in0.0 mm 0.20 in5.1 mm
04:10 PM 35.3°F1.8°C 39.1°F3.9°C 90% Calm Calm -- 29.32 in992.9 mb 0.00 in0.0 mm 0.00 in0.0 mm 0.20 in5.1 mm
04:13 PM 35.4°F1.9°C 39.3°F4.1°C 90% 4.4 mph NE7.1 kmh NE 4.5 mph7.2 kmh 29.30 in992.2 mb 0.00 in0.0 mm 0.00 in0.0 mm 0.20 in5.1 mm
04:16 PM 35.4°F1.9°C 39.1°F3.9°C 90% 2.8 mph E4.5 kmh E 2.8 mph4.5 kmh 29.30 in992.2 mb 0.00 in0.0 mm 0.00 in0.0 mm 0.20 in5.1 mm
04:19 PM 35.3°F1.8°C 39.0°F3.9°C 90% 1.6 mph ENE2.6 kmh ENE 1.6 mph2.6 kmh 29.29 in991.9 mb 0.00 in0.0 mm 0.00 in0.0 mm 0.20 in5.1 mm
04:22 PM 35.4°F1.9°C 39.2°F4.0°C 90% 2.0 mph NE3.2 kmh NE 2.0 mph3.2 kmh 29.29 in991.9 mb 0.00 in0.0 mm 0.00 in0.0 mm 0.20 in5.1 mm
04:25 PM 35.4°F1.9°C 38.8°F3.8°C 90% 6.8 mph NNW10.9 kmh NNW 6.8 mph10.9 kmh 29.30 in992.2 mb 0.00 in0.0 mm 0.00 in0.0 mm 0.20 in5.1 mm
04:28 PM 35.0°F1.7°C 39.0°F3.9°C 90% 4.8 mph NE7.7 kmh NE 4.8 mph7.7 kmh 29.29 in991.9 mb 0.00 in0.0 mm 0.00 in0.0 mm 0.20 in5.1 mm
04:31 PM 35.0°F1.7°C 38.8°F3.8°C 90% 8.9 mph NE14.3 kmh NE 8.9 mph14.3 kmh 29.30 in992.2 mb 0.00 in0.0 mm 0.00 in0.0 mm 0.20 in5.1 mm
04:34 PM 35.0°F1.7°C 38.6°F3.7°C 90% 6.5 mph NE10.5 kmh NE 6.5 mph10.5 kmh 29.32 in992.9 mb 0.00 in0.0 mm 0.00 in0.0 mm 0.20 in5.1 mm
04:37 PM 34.9°F1.6°C 38.4°F3.6°C 90% 3.6 mph NE5.8 kmh NE 3.7 mph6.0 kmh 29.31 in992.6 mb 0.00 in0.0 mm 0.00 in0.0 mm 0.20 in5.1 mm
04:40 PM 34.9°F1.6°C 38.7°F3.7°C 90% 2.3 mph NNW3.7 kmh NNW 2.3 mph3.7 kmh 29.30 in992.2 mb 0.00 in0.0 mm 0.00 in0.0 mm 0.20 in5.1 mm
04:43 PM 34.8°F1.6°C 38.9°F3.8°C 90% 3.2 mph NE5.1 kmh NE 3.2 mph5.1 kmh 29.31 in992.6 mb 0.00 in0.0 mm 0.00 in0.0 mm 0.20 in5.1 mm
04:46 PM 34.8°F1.6°C 38.9°F3.8°C 90% 8.1 mph NE13.0 kmh NE 8.1 mph13.0 kmh 29.30 in992.2 mb 0.00 in0.0 mm 0.00 in0.0 mm 0.20 in5.1 mm
04:49 PM 34.8°F1.6°C 38.9°F3.8°C 90% 4.4 mph NE7.1 kmh NE 4.5 mph7.2 kmh 29.30 in992.2 mb 0.00 in0.0 mm 0.00 in0.0 mm 0.20 in5.1 mm
04:52 PM 34.8°F1.6°C 38.4°F3.6°C 88% 3.6 mph NE5.8 kmh NE 3.6 mph5.8 kmh 29.30 in992.2 mb 0.00 in0.0 mm 0.00 in0.0 mm 0.20 in5.1 mm
04:55 PM 34.8°F1.6°C 39.2°F4.0°C 90% 2.3 mph E3.7 kmh E 2.3 mph3.7 kmh 29.30 in992.2 mb 0.00 in0.0 mm 0.00 in0.0 mm 0.20 in5.1 mm
04:58 PM 34.8°F1.6°C 38.8°F3.8°C 89% 1.2 mph E1.9 kmh E 1.2 mph1.9 kmh 29.30 in992.2 mb 0.00 in0.0 mm 0.00 in0.0 mm 0.20 in5.1 mm
05:01 PM 34.8°F1.6°C 38.5°F3.6°C 89% 5.3 mph ENE8.5 kmh ENE 5.3 mph8.5 kmh 29.32 in992.9 mb 0.00 in0.0 mm 0.00 in0.0 mm 0.20 in5.1 mm
05:07 PM 35.2°F1.8°C 38.7°F3.7°C 89% 5.3 mph NE8.5 kmh NE 5.3 mph8.5 kmh 29.33 in993.2 mb 0.00 in0.0 mm 0.00 in0.0 mm 0.20 in5.1 mm
05:10 PM 35.3°F1.8°C 38.9°F3.8°C 90% 1.2 mph 1.9 kmh 1.2 mph1.9 kmh 29.33 in993.2 mb 0.00 in0.0 mm 0.00 in0.0 mm 0.20 in5.1 mm
05:13 PM 35.2°F1.8°C 38.8°F3.8°C 89% 1.6 mph 2.6 kmh 1.6 mph2.6 kmh 29.35 in993.9 mb 0.00 in0.0 mm 0.00 in0.0 mm 0.20 in5.1 mm
05:16 PM 35.0°F1.7°C 39.0°F3.9°C 89% Calm Calm -- 29.35 in993.9 mb 0.00 in0.0 mm 0.00 in0.0 mm 0.20 in5.1 mm
05:19 PM 35.0°F1.7°C 39.1°F3.9°C 89% Calm Calm -- 29.35 in993.9 mb 0.00 in0.0 mm 0.00 in0.0 mm 0.20 in5.1 mm
05:22 PM 35.2°F1.8°C 39.1°F3.9°C 89% 1.5 mph W2.4 kmh W 1.5 mph2.4 kmh 29.35 in993.9 mb 0.00 in0.0 mm 0.00 in0.0 mm 0.20 in5.1 mm
05:25 PM 35.0°F1.7°C 38.9°F3.8°C 89% Calm Calm -- 29.33 in993.2 mb 0.00 in0.0 mm 0.00 in0.0 mm 0.20 in5.1 mm
05:28 PM 35.0°F1.7°C 38.8°F3.8°C 89% Calm Calm -- 29.33 in993.2 mb 0.00 in0.0 mm 0.00 in0.0 mm 0.20 in5.1 mm
05:31 PM 35.0°F1.7°C 39.0°F3.9°C 89% 0.8 mph E1.3 kmh E 0.8 mph1.3 kmh 29.33 in993.2 mb 0.00 in0.0 mm 0.00 in0.0 mm 0.20 in5.1 mm
05:34 PM 34.9°F1.6°C 39.3°F4.1°C 89% Calm Calm -- 29.32 in992.9 mb 0.00 in0.0 mm 0.00 in0.0 mm 0.20 in5.1 mm
05:37 PM 34.9°F1.6°C 39.4°F4.1°C 89% Calm Calm -- 29.32 in992.9 mb 0.00 in0.0 mm 0.00 in0.0 mm 0.20 in5.1 mm
05:40 PM 34.8°F1.6°C 38.9°F3.8°C 89% 0.4 mph E0.6 kmh E 0.4 mph0.6 kmh 29.33 in993.2 mb 0.00 in0.0 mm 0.00 in0.0 mm 0.20 in5.1 mm
05:43 PM 34.8°F1.6°C 38.7°F3.7°C 88% 1.6 mph ENE2.6 kmh ENE 1.6 mph2.6 kmh 29.33 in993.2 mb 0.00 in0.0 mm 0.00 in0.0 mm 0.20 in5.1 mm
05:46 PM 34.9°F1.6°C 38.8°F3.8°C 89% 1.6 mph SE2.6 kmh SE 1.6 mph2.6 kmh 29.33 in993.2 mb 0.00 in0.0 mm 0.00 in0.0 mm 0.20 in5.1 mm
05:49 PM 34.8°F1.6°C 38.8°F3.8°C 89% 2.0 mph ENE3.2 kmh ENE 2.0 mph3.2 kmh 29.33 in993.2 mb 0.00 in0.0 mm 0.00 in0.0 mm 0.20 in5.1 mm
05:52 PM 35.0°F1.7°C 38.7°F3.7°C 89% 4.4 mph NNE7.1 kmh NNE 4.5 mph7.2 kmh 29.33 in993.2 mb 0.00 in0.0 mm 0.00 in0.0 mm 0.22 in5.6 mm
05:55 PM 35.2°F1.8°C 38.4°F3.6°C 87% 5.3 mph NE8.5 kmh NE 5.3 mph8.5 kmh 29.34 in993.6 mb 0.00 in0.0 mm 0.00 in0.0 mm 0.22 in5.6 mm
05:58 PM 35.3°F1.8°C 38.6°F3.7°C 88% 3.6 mph NNW5.8 kmh NNW 3.6 mph5.8 kmh 29.35 in993.9 mb 0.00 in0.0 mm 0.00 in0.0 mm 0.22 in5.6 mm
06:01 PM 35.2°F1.8°C 38.7°F3.7°C 89% Calm Calm -- 29.35 in993.9 mb 0.00 in0.0 mm 0.00 in0.0 mm 0.22 in5.6 mm
06:04 PM 34.9°F1.6°C 38.5°F3.6°C 88% Calm Calm -- 29.35 in993.9 mb 0.00 in0.0 mm 0.00 in0.0 mm 0.22 in5.6 mm
06:07 PM 35.0°F1.7°C 38.9°F3.8°C 89% Calm Calm -- 29.35 in993.9 mb 0.00 in0.0 mm 0.00 in0.0 mm 0.22 in5.6 mm
06:10 PM 34.9°F1.6°C 38.8°F3.8°C 88% Calm Calm -- 29.35 in993.9 mb 0.00 in0.0 mm 0.00 in0.0 mm 0.22 in5.6 mm
06:13 PM 35.0°F1.7°C 38.9°F3.8°C 89% Calm Calm -- 29.36 in994.2 mb 0.00 in0.0 mm 0.00 in0.0 mm 0.22 in5.6 mm
06:16 PM 35.0°F1.7°C 38.9°F3.8°C 89% Calm Calm -- 29.36 in994.2 mb 0.00 in0.0 mm 0.00 in0.0 mm 0.22 in5.6 mm
06:19 PM 35.0°F1.7°C 38.8°F3.8°C 89% 2.4 mph NW3.9 kmh NW 2.4 mph3.9 kmh 29.36 in994.2 mb 0.00 in0.0 mm 0.00 in0.0 mm 0.22 in5.6 mm
06:22 PM 35.0°F1.7°C 38.6°F3.7°C 88% 1.2 mph NW1.9 kmh NW 1.2 mph1.9 kmh 29.37 in994.6 mb 0.00 in0.0 mm 0.00 in0.0 mm 0.22 in5.6 mm
06:25 PM 35.0°F1.7°C 38.7°F3.7°C 89% 0.8 mph WNW1.3 kmh WNW 0.8 mph1.3 kmh 29.37 in994.6 mb 0.00 in0.0 mm 0.00 in0.0 mm 0.22 in5.6 mm
06:28 PM 35.2°F1.8°C 39.0°F3.9°C 89% Calm Calm -- 29.38 in994.9 mb 0.00 in0.0 mm 0.00 in0.0 mm 0.22 in5.6 mm
06:31 PM 35.0°F1.7°C 39.1°F3.9°C 89% 1.2 mph NW1.9 kmh NW 1.2 mph1.9 kmh 29.38 in994.9 mb 0.00 in0.0 mm 0.00 in0.0 mm 0.22 in5.6 mm
06:34 PM 35.0°F1.7°C 38.9°F3.8°C 88% Calm Calm -- 29.38 in994.9 mb 0.00 in0.0 mm 0.00 in0.0 mm 0.22 in5.6 mm
06:37 PM 35.2°F1.8°C 38.6°F3.7°C 88% Calm Calm -- 29.38 in994.9 mb 0.00 in0.0 mm 0.00 in0.0 mm 0.22 in5.6 mm
06:40 PM 35.3°F1.8°C 38.8°F3.8°C 88% 0.4 mph NNW0.6 kmh NNW 0.4 mph0.6 kmh 29.36 in994.2 mb 0.00 in0.0 mm 0.00 in0.0 mm 0.22 in5.6 mm
06:43 PM 35.2°F1.8°C 38.8°F3.8°C 88% Calm Calm -- 29.38 in994.9 mb 0.00 in0.0 mm 0.00 in0.0 mm 0.22 in5.6 mm
06:46 PM 35.2°F1.8°C 38.9°F3.8°C 88% Calm Calm -- 29.37 in994.6 mb 0.00 in0.0 mm 0.00 in0.0 mm 0.22 in5.6 mm
06:49 PM 35.2°F1.8°C 39.2°F4.0°C 89% Calm Calm -- 29.36 in994.2 mb 0.00 in0.0 mm 0.00 in0.0 mm 0.22 in5.6 mm
06:52 PM 34.9°F1.6°C 38.9°F3.8°C 89% Calm Calm -- 29.36 in994.2 mb 0.00 in0.0 mm 0.00 in0.0 mm 0.22 in5.6 mm
06:55 PM 34.9°F1.6°C 38.3°F3.5°C 87% Calm Calm -- 29.36 in994.2 mb 0.00 in0.0 mm 0.00 in0.0 mm 0.22 in5.6 mm
06:58 PM 34.8°F1.6°C 38.8°F3.8°C 89% Calm Calm -- 29.36 in994.2 mb 0.00 in0.0 mm 0.00 in0.0 mm 0.22 in5.6 mm
07:01 PM 34.8°F1.6°C 38.7°F3.7°C 88% Calm Calm -- 29.36 in994.2 mb 0.00 in0.0 mm 0.00 in0.0 mm 0.22 in5.6 mm
07:04 PM 34.7°F1.5°C 38.5°F3.6°C 87% Calm Calm -- 29.37 in994.6 mb 0.00 in0.0 mm 0.00 in0.0 mm 0.22 in5.6 mm
07:07 PM 34.7°F1.5°C 39.0°F3.9°C 89% Calm Calm -- 29.38 in994.9 mb 0.00 in0.0 mm 0.00 in0.0 mm 0.22 in5.6 mm
07:10 PM 34.6°F1.4°C 38.7°F3.7°C 88% Calm Calm -- 29.38 in994.9 mb 0.00 in0.0 mm 0.00 in0.0 mm 0.22 in5.6 mm
07:13 PM 34.6°F1.4°C 38.5°F3.6°C 88% 0.8 mph WNW1.3 kmh WNW 0.8 mph1.3 kmh 29.38 in994.9 mb 0.00 in0.0 mm 0.00 in0.0 mm 0.22 in5.6 mm
07:16 PM 34.7°F1.5°C 38.8°F3.8°C 88% 3.6 mph NW5.8 kmh NW 3.6 mph5.8 kmh 29.39 in995.3 mb 0.00 in0.0 mm 0.00 in0.0 mm 0.22 in5.6 mm
07:19 PM 34.8°F1.6°C 38.8°F3.8°C 88% 1.6 mph NW2.6 kmh NW 1.6 mph2.6 kmh 29.39 in995.3 mb 0.00 in0.0 mm 0.00 in0.0 mm 0.22 in5.6 mm
07:22 PM 34.8°F1.6°C 38.8°F3.8°C 89% Calm Calm -- 29.40 in995.6 mb 0.00 in0.0 mm 0.00 in0.0 mm 0.22 in5.6 mm
07:25 PM 34.7°F1.5°C 39.0°F3.9°C 89% Calm Calm -- 29.41 in995.9 mb 0.00 in0.0 mm 0.00 in0.0 mm 0.22 in5.6 mm
07:28 PM 34.7°F1.5°C 39.0°F3.9°C 89% Calm Calm -- 29.40 in995.6 mb 0.00 in0.0 mm 0.00 in0.0 mm 0.22 in5.6 mm
07:31 PM 34.7°F1.5°C 38.9°F3.8°C 89% Calm Calm -- 29.40 in995.6 mb 0.00 in0.0 mm 0.00 in0.0 mm 0.22 in5.6 mm
07:34 PM 34.7°F1.5°C 39.2°F4.0°C 89% Calm Calm -- 29.40 in995.6 mb 0.00 in0.0 mm 0.00 in0.0 mm 0.22 in5.6 mm
07:37 PM 34.7°F1.5°C 38.8°F3.8°C 89% Calm Calm -- 29.40 in995.6 mb 0.00 in0.0 mm 0.00 in0.0 mm 0.22 in5.6 mm
07:40 PM 34.8°F1.6°C 38.8°F3.8°C 89% Calm Calm -- 29.41 in995.9 mb 0.00 in0.0 mm 0.00 in0.0 mm 0.22 in5.6 mm
07:43 PM 34.7°F1.5°C 38.8°F3.8°C 89% Calm Calm -- 29.42 in996.3 mb 0.00 in0.0 mm 0.00 in0.0 mm 0.22 in5.6 mm
07:46 PM 34.8°F1.6°C 38.9°F3.8°C 89% Calm Calm -- 29.42 in996.3 mb 0.00 in0.0 mm 0.00 in0.0 mm 0.22 in5.6 mm
07:49 PM 34.8°F1.6°C 38.8°F3.8°C 89% Calm Calm -- 29.42 in996.3 mb 0.00 in0.0 mm 0.00 in0.0 mm 0.22 in5.6 mm
07:52 PM 34.8°F1.6°C 38.9°F3.8°C 89% Calm Calm -- 29.42 in996.3 mb 0.00 in0.0 mm 0.00 in0.0 mm 0.22 in5.6 mm
07:55 PM 34.8°F1.6°C 38.8°F3.8°C 89% 1.2 mph NNW1.9 kmh NNW 1.2 mph1.9 kmh 29.43 in996.6 mb 0.00 in0.0 mm 0.00 in0.0 mm 0.22 in5.6 mm
07:58 PM 34.8°F1.6°C 38.8°F3.8°C 89% Calm Calm -- 29.43 in996.6 mb 0.00 in0.0 mm 0.00 in0.0 mm 0.22 in5.6 mm
08:01 PM 34.8°F1.6°C 38.9°F3.8°C 89% Calm Calm -- 29.43 in996.6 mb 0.00 in0.0 mm 0.00 in0.0 mm 0.22 in5.6 mm
08:04 PM 34.7°F1.5°C 38.9°F3.8°C 89% 0.4 mph W0.6 kmh W 0.4 mph0.6 kmh 29.43 in996.6 mb 0.00 in0.0 mm 0.00 in0.0 mm 0.22 in5.6 mm
08:07 PM 34.7°F1.5°C 38.9°F3.8°C 89% Calm Calm -- 29.44 in997.0 mb 0.00 in0.0 mm 0.00 in0.0 mm 0.22 in5.6 mm
08:10 PM 34.7°F1.5°C 38.8°F3.8°C 89% 3.1 mph NNW5.0 kmh NNW 3.1 mph5.0 kmh 29.44 in997.0 mb 0.00 in0.0 mm 0.00 in0.0 mm 0.22 in5.6 mm
08:13 PM 34.7°F1.5°C 38.9°F3.8°C 89% Calm Calm -- 29.45 in997.3 mb 0.00 in0.0 mm 0.00 in0.0 mm 0.22 in5.6 mm
08:16 PM 34.7°F1.5°C 38.8°F3.8°C 89% Calm Calm -- 29.45 in997.3 mb 0.00 in0.0 mm 0.00 in0.0 mm 0.22 in5.6 mm
08:19 PM 34.7°F1.5°C 38.4°F3.6°C 88% Calm Calm -- 29.45 in997.3 mb 0.00 in0.0 mm 0.00 in0.0 mm 0.22 in5.6 mm
08:22 PM 34.7°F1.5°C 39.1°F3.9°C 89% Calm Calm -- 29.45 in997.3 mb 0.00 in0.0 mm 0.00 in0.0 mm 0.22 in5.6 mm
08:25 PM 34.6°F1.4°C 38.9°F3.8°C 89% 0.8 mph NW1.3 kmh NW 0.8 mph1.3 kmh 29.45 in997.3 mb 0.00 in0.0 mm 0.00 in0.0 mm 0.22 in5.6 mm
08:28 PM 34.6°F1.4°C 38.9°F3.8°C 89% 1.2 mph NW1.9 kmh NW 1.2 mph1.9 kmh 29.45 in997.3 mb 0.00 in0.0 mm 0.00 in0.0 mm 0.22 in5.6 mm
08:31 PM 34.7°F1.5°C 39.0°F3.9°C 89% Calm Calm -- 29.46 in997.6 mb 0.00 in0.0 mm 0.00 in0.0 mm 0.22 in5.6 mm
08:34 PM 34.6°F1.4°C 38.6°F3.7°C 89% Calm Calm -- 29.46 in997.6 mb 0.00 in0.0 mm 0.00 in0.0 mm 0.22 in5.6 mm
08:37 PM 34.6°F1.4°C 38.9°F3.8°C 89% Calm Calm -- 29.46 in997.6 mb 0.00 in0.0 mm 0.00 in0.0 mm 0.22 in5.6 mm
08:40 PM 34.6°F1.4°C 38.8°F3.8°C 89% 0.8 mph NW1.3 kmh NW 0.8 mph1.3 kmh 29.46 in997.6 mb 0.00 in0.0 mm 0.00 in0.0 mm 0.22 in5.6 mm
08:43 PM 34.6°F1.4°C 38.9°F3.8°C 89% 0.4 mph NW0.6 kmh NW 0.4 mph0.6 kmh 29.46 in997.6 mb 0.00 in0.0 mm 0.00 in0.0 mm 0.22 in5.6 mm
08:46 PM 34.6°F1.4°C 39.0°F3.9°C 89% 0.8 mph NW1.3 kmh NW 0.8 mph1.3 kmh 29.47 in998.0 mb 0.00 in0.0 mm 0.00 in0.0 mm 0.22 in5.6 mm
08:49 PM 34.6°F1.4°C 38.8°F3.8°C 89% 2.0 mph NW3.2 kmh NW 2.0 mph3.2 kmh 29.47 in998.0 mb 0.00 in0.0 mm 0.00 in0.0 mm 0.22 in5.6 mm
08:52 PM 34.6°F1.4°C 39.0°F3.9°C 90% 1.6 mph NNW2.6 kmh NNW 1.6 mph2.6 kmh 29.47 in998.0 mb 0.00 in0.0 mm 0.00 in0.0 mm 0.22 in5.6 mm
08:55 PM 34.6°F1.4°C 38.8°F3.8°C 90% 0.8 mph NNW1.3 kmh NNW 0.8 mph1.3 kmh 29.47 in998.0 mb 0.00 in0.0 mm 0.00 in0.0 mm 0.22 in5.6 mm
08:58 PM 34.6°F1.4°C 38.6°F3.7°C 89% 0.4 mph NW0.6 kmh NW 0.4 mph0.6 kmh 29.47 in998.0 mb 0.00 in0.0 mm 0.00 in0.0 mm 0.22 in5.6 mm
09:01 PM 34.6°F1.4°C 38.7°F3.7°C 89% 0.4 mph NW0.6 kmh NW 0.4 mph0.6 kmh 29.47 in998.0 mb 0.00 in0.0 mm 0.00 in0.0 mm 0.22 in5.6 mm
09:04 PM 34.6°F1.4°C 38.7°F3.7°C 89% 2.0 mph NNW3.2 kmh NNW 2.0 mph3.2 kmh 29.47 in998.0 mb 0.00 in0.0 mm 0.00 in0.0 mm 0.22 in5.6 mm
09:07 PM 34.6°F1.4°C 38.8°F3.8°C 89% Calm Calm -- 29.48 in998.3 mb 0.00 in0.0 mm 0.00 in0.0 mm 0.22 in5.6 mm
09:10 PM 34.6°F1.4°C 38.9°F3.8°C 90% 1.6 mph NNW2.6 kmh NNW 1.6 mph2.6 kmh 29.47 in998.0 mb 0.00 in0.0 mm 0.00 in0.0 mm 0.22 in5.6 mm
09:13 PM 34.6°F1.4°C 39.0°F3.9°C 89% 1.6 mph NW2.6 kmh NW 1.6 mph2.6 kmh 29.48 in998.3 mb 0.00 in0.0 mm 0.00 in0.0 mm 0.22 in5.6 mm
09:16 PM 34.5°F1.4°C 38.9°F3.8°C 90% Calm Calm -- 29.48 in998.3 mb 0.00 in0.0 mm 0.00 in0.0 mm 0.22 in5.6 mm
09:19 PM 34.5°F1.4°C 38.7°F3.7°C 90% 0.4 mph NW0.6 kmh NW 0.4 mph0.6 kmh 29.48 in998.3 mb 0.00 in0.0 mm 0.00 in0.0 mm 0.22 in5.6 mm
09:22 PM 34.5°F1.4°C 38.5°F3.6°C 89% 1.2 mph NW1.9 kmh NW 1.2 mph1.9 kmh 29.48 in998.3 mb 0.00 in0.0 mm 0.00 in0.0 mm 0.22 in5.6 mm
09:25 PM 34.5°F1.4°C 38.8°F3.8°C 90% 2.7 mph NNW4.3 kmh NNW 2.7 mph4.3 kmh 29.48 in998.3 mb 0.00 in0.0 mm 0.00 in0.0 mm 0.22 in5.6 mm
09:28 PM 34.5°F1.4°C 38.7°F3.7°C 90% 2.4 mph NW3.9 kmh NW 2.4 mph3.9 kmh 29.49 in998.6 mb 0.00 in0.0 mm 0.00 in0.0 mm 0.22 in5.6 mm
09:31 PM 34.5°F1.4°C 38.9°F3.8°C 90% 1.6 mph NW2.6 kmh NW 1.6 mph2.6 kmh 29.49 in998.6 mb 0.00 in0.0 mm 0.00 in0.0 mm 0.22 in5.6 mm
09:34 PM 34.6°F1.4°C 38.8°F3.8°C 90% 4.0 mph NW6.4 kmh NW 4.0 mph6.4 kmh 29.48 in998.3 mb 0.00 in0.0 mm 0.00 in0.0 mm 0.22 in5.6 mm
09:37 PM 34.6°F1.4°C 38.6°F3.7°C 89% 2.4 mph NNW3.9 kmh NNW 2.4 mph3.9 kmh 29.49 in998.6 mb 0.00 in0.0 mm 0.00 in0.0 mm 0.22 in5.6 mm
09:40 PM 34.5°F1.4°C 38.7°F3.7°C 90% 2.0 mph NNW3.2 kmh NNW 2.0 mph3.2 kmh 29.49 in998.6 mb 0.00 in0.0 mm 0.00 in0.0 mm 0.22 in5.6 mm
09:43 PM 34.5°F1.4°C 39.0°F3.9°C 90% 4.0 mph WNW6.4 kmh WNW 4.0 mph6.4 kmh 29.49 in998.6 mb 0.00 in0.0 mm 0.00 in0.0 mm 0.22 in5.6 mm
09:46 PM 34.5°F1.4°C 38.3°F3.5°C 89% 3.6 mph NW5.8 kmh NW 3.7 mph6.0 kmh 29.49 in998.6 mb 0.00 in0.0 mm 0.00 in0.0 mm 0.22 in5.6 mm
09:49 PM 34.5°F1.4°C 38.5°F3.6°C 90% 0.8 mph NNW1.3 kmh NNW 0.8 mph1.3 kmh 29.49 in998.6 mb 0.00 in0.0 mm 0.00 in0.0 mm 0.22 in5.6 mm
09:52 PM 34.5°F1.4°C 38.7°F3.7°C 90% 1.2 mph NNW1.9 kmh NNW 1.2 mph1.9 kmh 29.49 in998.6 mb 0.00 in0.0 mm 0.00 in0.0 mm 0.22 in5.6 mm
09:55 PM 34.5°F1.4°C 38.9°F3.8°C 90% 4.8 mph NW7.7 kmh NW 4.9 mph7.9 kmh 29.50 in999.0 mb 0.00 in0.0 mm 0.00 in0.0 mm 0.22 in5.6 mm
09:58 PM 34.5°F1.4°C 38.7°F3.7°C 90% Calm Calm -- 29.49 in998.6 mb 0.00 in0.0 mm 0.00 in0.0 mm 0.22 in5.6 mm
10:01 PM 34.5°F1.4°C 38.4°F3.6°C 90% 1.6 mph NNW2.6 kmh NNW 1.6 mph2.6 kmh 29.50 in999.0 mb 0.00 in0.0 mm 0.00 in0.0 mm 0.22 in5.6 mm
10:04 PM 34.5°F1.4°C 38.6°F3.7°C 90% 1.6 mph NNW2.6 kmh NNW 1.6 mph2.6 kmh 29.50 in999.0 mb 0.00 in0.0 mm 0.00 in0.0 mm 0.22 in5.6 mm
10:07 PM 34.4°F1.3°C 38.5°F3.6°C 90% 2.4 mph NNW3.9 kmh NNW 2.5 mph4.0 kmh 29.50 in999.0 mb 0.00 in0.0 mm 0.00 in0.0 mm 0.22 in5.6 mm
10:10 PM 34.5°F1.4°C 38.6°F3.7°C 90% 4.7 mph WNW7.6 kmh WNW 4.8 mph7.7 kmh 29.50 in999.0 mb 0.00 in0.0 mm 0.00 in0.0 mm 0.22 in5.6 mm
10:16 PM 34.5°F1.4°C 38.8°F3.8°C 90% Calm Calm -- 29.50 in999.0 mb 0.00 in0.0 mm 0.00 in0.0 mm 0.22 in5.6 mm
10:19 PM 34.5°F1.4°C 38.9°F3.8°C 90% 0.4 mph NNW0.6 kmh NNW 0.4 mph0.6 kmh 29.51 in999.3 mb 0.00 in0.0 mm 0.00 in0.0 mm 0.22 in5.6 mm
10:22 PM 34.5°F1.4°C 38.6°F3.7°C 89% Calm Calm -- 29.51 in999.3 mb 0.00 in0.0 mm 0.00 in0.0 mm 0.22 in5.6 mm
10:25 PM 34.5°F1.4°C 38.8°F3.8°C 90% 1.6 mph NNW2.6 kmh NNW 1.6 mph2.6 kmh 29.52 in999.7 mb 0.00 in0.0 mm 0.00 in0.0 mm 0.22 in5.6 mm
10:28 PM 34.4°F1.3°C 38.7°F3.7°C 90% 0.4 mph NW0.6 kmh NW 0.4 mph0.6 kmh 29.52 in999.7 mb 0.00 in0.0 mm 0.00 in0.0 mm 0.22 in5.6 mm
10:34 PM 34.4°F1.3°C 38.4°F3.6°C 89% 0.4 mph NW0.6 kmh NW 0.4 mph0.6 kmh 29.52 in999.7 mb 0.00 in0.0 mm 0.00 in0.0 mm 0.22 in5.6 mm
10:37 PM 34.5°F1.4°C 38.3°F3.5°C 89% Calm Calm -- 29.52 in999.7 mb 0.00 in0.0 mm 0.00 in0.0 mm 0.22 in5.6 mm
10:40 PM 34.5°F1.4°C 38.4°F3.6°C 90% Calm Calm -- 29.52 in999.7 mb 0.00 in0.0 mm 0.00 in0.0 mm 0.22 in5.6 mm
10:43 PM 34.5°F1.4°C 38.4°F3.6°C 90% 0.4 mph WNW0.6 kmh WNW 0.4 mph0.6 kmh 29.52 in999.7 mb 0.00 in0.0 mm 0.00 in0.0 mm 0.22 in5.6 mm
10:46 PM 34.5°F1.4°C 38.7°F3.7°C 90% Calm Calm -- 29.52 in999.7 mb 0.00 in0.0 mm 0.00 in0.0 mm 0.22 in5.6 mm
10:49 PM 34.5°F1.4°C 38.7°F3.7°C 90% 1.6 mph NNW2.6 kmh NNW 1.6 mph2.6 kmh 29.52 in999.7 mb 0.00 in0.0 mm 0.00 in0.0 mm 0.22 in5.6 mm
10:52 PM 34.4°F1.3°C 38.7°F3.7°C 90% 0.4 mph WNW0.6 kmh WNW 0.4 mph0.6 kmh 29.52 in999.7 mb 0.00 in0.0 mm 0.00 in0.0 mm 0.22 in5.6 mm
10:55 PM 34.4°F1.3°C 38.8°F3.8°C 90% 2.7 mph NNW4.3 kmh NNW 2.7 mph4.3 kmh 29.52 in999.7 mb 0.00 in0.0 mm 0.00 in0.0 mm 0.22 in5.6 mm
10:58 PM 34.4°F1.3°C 38.9°F3.8°C 90% 0.4 mph NW0.6 kmh NW 0.4 mph0.6 kmh 29.52 in999.7 mb 0.00 in0.0 mm 0.00 in0.0 mm 0.22 in5.6 mm
11:01 PM 34.4°F1.3°C 38.5°F3.6°C 89% Calm Calm -- 29.52 in999.7 mb 0.00 in0.0 mm 0.00 in0.0 mm 0.22 in5.6 mm
11:04 PM 34.4°F1.3°C 38.8°F3.8°C 90% Calm Calm -- 29.52 in999.7 mb 0.00 in0.0 mm 0.00 in0.0 mm 0.22 in5.6 mm
11:07 PM 34.4°F1.3°C 38.7°F3.7°C 90% Calm Calm -- 29.52 in999.7 mb 0.00 in0.0 mm 0.00 in0.0 mm 0.22 in5.6 mm
11:10 PM 34.3°F1.3°C 38.6°F3.7°C 90% 1.2 mph NNW1.9 kmh NNW 1.2 mph1.9 kmh 29.52 in999.7 mb 0.00 in0.0 mm 0.00 in0.0 mm 0.22 in5.6 mm
11:13 PM 34.3°F1.3°C 38.6°F3.7°C 90% Calm Calm -- 29.52 in999.7 mb 0.00 in0.0 mm 0.00 in0.0 mm 0.22 in5.6 mm
11:16 PM 34.3°F1.3°C 38.5°F3.6°C 90% Calm Calm -- 29.53 in1000.0 mb 0.00 in0.0 mm 0.00 in0.0 mm 0.22 in5.6 mm
11:19 PM 34.1°F1.2°C 38.5°F3.6°C 90% Calm Calm -- 29.52 in999.7 mb 0.00 in0.0 mm 0.00 in0.0 mm 0.22 in5.6 mm
11:22 PM 34.3°F1.3°C 38.4°F3.6°C 90% Calm Calm -- 29.53 in1000.0 mb 0.00 in0.0 mm 0.00 in0.0 mm 0.22 in5.6 mm
11:25 PM 34.3°F1.3°C 38.7°F3.7°C 90% 0.4 mph WNW0.6 kmh WNW 0.4 mph0.6 kmh 29.53 in1000.0 mb 0.00 in0.0 mm 0.00 in0.0 mm 0.22 in5.6 mm
11:28 PM 34.3°F1.3°C 38.8°F3.8°C 90% Calm Calm -- 29.53 in1000.0 mb 0.00 in0.0 mm 0.00 in0.0 mm 0.22 in5.6 mm
11:31 PM 34.3°F1.3°C 38.6°F3.7°C 89% 0.8 mph WSW1.3 kmh WSW 0.8 mph1.3 kmh 29.53 in1000.0 mb 0.00 in0.0 mm 0.00 in0.0 mm 0.22 in5.6 mm
11:34 PM 34.3°F1.3°C 38.4°F3.6°C 90% Calm Calm -- 29.53 in1000.0 mb 0.00 in0.0 mm 0.00 in0.0 mm 0.22 in5.6 mm
11:37 PM 34.3°F1.3°C 38.5°F3.6°C 90% Calm Calm -- 29.54 in1000.3 mb 0.00 in0.0 mm 0.00 in0.0 mm 0.22 in5.6 mm
11:40 PM 34.3°F1.3°C 38.5°F3.6°C 90% 0.8 mph NNW1.3 kmh NNW 0.8 mph1.3 kmh 29.54 in1000.3 mb 0.00 in0.0 mm 0.00 in0.0 mm 0.22 in5.6 mm
11:46 PM 34.3°F1.3°C 38.0°F3.3°C 88% 0.8 mph NNW1.3 kmh NNW 0.8 mph1.3 kmh 29.55 in1000.7 mb 0.00 in0.0 mm 0.00 in0.0 mm 0.22 in5.6 mm
11:49 PM 34.3°F1.3°C 38.4°F3.6°C 90% Calm Calm -- 29.55 in1000.7 mb 0.00 in0.0 mm 0.00 in0.0 mm 0.22 in5.6 mm
11:52 PM 34.3°F1.3°C 38.2°F3.4°C 89% Calm Calm -- 29.55 in1000.7 mb 0.00 in0.0 mm 0.00 in0.0 mm 0.22 in5.6 mm
11:55 PM 34.3°F1.3°C 38.6°F3.7°C 90% Calm Calm -- 29.55 in1000.7 mb 0.00 in0.0 mm 0.00 in0.0 mm 0.22 in5.6 mm
11:58 PM 34.3°F1.3°C 38.5°F3.6°C 90% Calm Calm -- 29.55 in1000.7 mb 0.00 in0.0 mm 0.00 in0.0 mm 0.22 in5.6 mm